
Distance (Route):
Temperature : -1.6°C
Humidity : 51.8%
Pressure : 0hPa| Receiver | Frames | First received | Last received |
|---|---|---|---|
| DL9RDZ-1 | 539 | 2026-09-01 23:04:10 | 2026-09-02 00:59:14 |
| Receiver | Date | Latitude | Longitude | Direction | Speed | Altitude | Climb | Temperature | Humidity | Pressure | Voltage | Killtimer | Uptime | BKT | XDATA |
|---|---|---|---|---|---|---|---|---|---|---|---|---|---|---|---|
| DL9RDZ-1 | 2026-09-02 00:59:14 | 64.26174 | -21.40890 | 51° | 9km/h | 1865m | -13.3m/s | -1.6°C | 51.8% | 0hPa | 0V | 08:06:00 | 00:00:00 | 00:00:00 | |
| DL9RDZ-1 | 2026-09-02 00:59:02 | 64.26151 | -21.40948 | 49° | 9km/h | 2015m | -12.6m/s | -2.4°C | 47.0% | 0hPa | 0V | 08:06:00 | 00:00:00 | 00:00:00 | |
| DL9RDZ-1 | 2026-09-02 00:58:51 | 64.26131 | -21.40989 | 40° | 11km/h | 2148m | -13.2m/s | -3.3°C | 45.5% | 0hPa | 0V | 08:06:00 | 00:00:00 | 00:00:00 | |
| DL9RDZ-1 | 2026-09-02 00:58:41 | 64.26111 | -21.41024 | 30° | 11km/h | 2271m | -13.3m/s | -4.0°C | 43.1% | 0hPa | 0V | 08:06:00 | 00:00:00 | 00:00:00 | |
| DL9RDZ-1 | 2026-09-02 00:58:30 | 64.26085 | -21.41058 | 19° | 9km/h | 2402m | -12.6m/s | -4.9°C | 39.2% | 0hPa | 0V | 08:06:00 | 00:00:00 | 00:00:00 | |
| DL9RDZ-1 | 2026-09-02 00:58:20 | 64.26067 | -21.41079 | 14° | 7km/h | 2521m | -12.7m/s | -5.6°C | 40.8% | 0hPa | 0V | 08:06:00 | 00:00:00 | 00:00:00 | |
| DL9RDZ-1 | 2026-09-02 00:58:09 | 64.26051 | -21.41091 | 0° | 0km/h | 2658m | -13.1m/s | -6.3°C | 41.4% | 0hPa | 0V | 08:07:00 | 00:00:00 | 00:00:00 | |
| DL9RDZ-1 | 2026-09-02 00:57:58 | 64.26041 | -21.41090 | 329° | 5km/h | 2790m | -11.7m/s | -7.4°C | 40.7% | 0hPa | 0V | 08:07:00 | 00:00:00 | 00:00:00 | |
| DL9RDZ-1 | 2026-09-02 00:57:48 | 64.26028 | -21.41091 | 33° | 5km/h | 2909m | -12.8m/s | -8.0°C | 42.9% | 0hPa | 0V | 08:07:00 | 00:00:00 | 00:00:00 | |
| DL9RDZ-1 | 2026-09-02 00:57:38 | 64.26013 | -21.41111 | 55° | 9km/h | 3031m | -13.2m/s | -8.7°C | 36.0% | 0hPa | 0V | 08:07:00 | 00:00:00 | 00:00:00 | |
| DL9RDZ-1 | 2026-09-02 00:57:27 | 64.25998 | -21.41145 | 52° | 9km/h | 3164m | -14.0m/s | -9.6°C | 38.5% | 0hPa | 0V | 08:07:00 | 00:00:00 | 00:00:00 | |
| DL9RDZ-1 | 2026-09-02 00:57:18 | 64.25981 | -21.41174 | 44° | 9km/h | 3289m | -13.5m/s | -10.5°C | 50.0% | 0hPa | 0V | 08:08:00 | 00:00:00 | 00:00:00 | |
| DL9RDZ-1 | 2026-09-02 00:57:06 | 64.25963 | -21.41201 | 37° | 9km/h | 3424m | -12.4m/s | -11.1°C | 58.4% | 0hPa | 0V | 08:08:00 | 00:00:00 | 00:00:00 | |
| DL9RDZ-1 | 2026-09-02 00:56:55 | 64.25932 | -21.41219 | 8° | 15km/h | 3558m | -12.6m/s | -11.7°C | 56.7% | 0hPa | 0V | 08:08:00 | 00:00:00 | 00:00:00 | |
| DL9RDZ-1 | 2026-09-02 00:56:44 | 64.25883 | -21.41210 | 346° | 18km/h | 3693m | -12.2m/s | -12.2°C | 47.5% | 0hPa | 0V | 08:08:00 | 00:00:00 | 00:00:00 | |
| DL9RDZ-1 | 2026-09-02 00:56:34 | 64.25834 | -21.41190 | 349° | 18km/h | 3818m | -13.6m/s | -12.9°C | 53.5% | 0hPa | 0V | 08:08:00 | 00:00:00 | 00:00:00 | |
| DL9RDZ-1 | 2026-09-02 00:56:23 | 64.25776 | -21.41168 | 1° | 22km/h | 3957m | -13.2m/s | -13.5°C | 47.3% | 0hPa | 0V | 08:09:00 | 00:00:00 | 00:00:00 | |
| DL9RDZ-1 | 2026-09-02 00:56:13 | 64.25708 | -21.41164 | 357° | 26km/h | 4092m | -12.9m/s | -14.2°C | 39.7% | 0hPa | 0V | 08:09:00 | 00:00:00 | 00:00:00 | |
| DL9RDZ-1 | 2026-09-02 00:55:57 | 64.25594 | -21.41167 | 3° | 26km/h | 4305m | -13.5m/s | -15.6°C | 41.8% | 0hPa | 0V | 08:09:00 | 00:00:00 | 00:00:00 | |
| DL9RDZ-1 | 2026-09-02 00:55:45 | 64.25529 | -21.41169 | 2° | 27km/h | 4428m | -11.9m/s | -16.3°C | 42.9% | 0hPa | 0V | 08:09:00 | 00:00:00 | 00:00:00 | |
| DL9RDZ-1 | 2026-09-02 00:55:34 | 64.25451 | -21.41194 | 15° | 29km/h | 4560m | -13.3m/s | -16.9°C | 47.9% | 0hPa | 0V | 08:10:00 | 00:00:00 | 00:00:00 | |
| DL9RDZ-1 | 2026-09-02 00:55:25 | 64.25379 | -21.41239 | 20° | 27km/h | 4683m | -13.2m/s | -17.4°C | 46.8% | 0hPa | 0V | 08:10:00 | 00:00:00 | 00:00:00 | |
| DL9RDZ-1 | 2026-09-02 00:55:13 | 64.25301 | -21.41309 | 27° | 31km/h | 4822m | -14.0m/s | -18.4°C | 49.9% | 0hPa | 0V | 08:10:00 | 00:00:00 | 00:00:00 | |
| DL9RDZ-1 | 2026-09-02 00:55:03 | 64.25233 | -21.41394 | 34° | 29km/h | 4950m | -14.1m/s | -19.3°C | 51.3% | 0hPa | 0V | 08:10:00 | 00:00:00 | 00:00:00 | |
| DL9RDZ-1 | 2026-09-02 00:54:54 | 64.25166 | -21.41491 | 33° | 31km/h | 5082m | -14.3m/s | -20.2°C | 56.5% | 0hPa | 0V | 08:10:00 | 00:00:00 | 00:00:00 | |
| DL9RDZ-1 | 2026-09-02 00:54:42 | 64.25092 | -21.41618 | 47° | 31km/h | 5223m | -13.6m/s | -21.2°C | 66.7% | 0hPa | 0V | 08:11:00 | 00:00:00 | 00:00:00 | |
| DL9RDZ-1 | 2026-09-02 00:54:32 | 64.25038 | -21.41740 | 41° | 27km/h | 5358m | -13.9m/s | -21.8°C | 80.0% | 0hPa | 0V | 08:11:00 | 00:00:00 | 00:00:00 | |
| DL9RDZ-1 | 2026-09-02 00:54:22 | 64.24976 | -21.41861 | 46° | 33km/h | 5509m | -14.7m/s | -22.7°C | 80.3% | 0hPa | 0V | 08:11:00 | 00:00:00 | 00:00:00 | |
| DL9RDZ-1 | 2026-09-02 00:54:10 | 64.24917 | -21.41989 | 39° | 27km/h | 5664m | -13.0m/s | -24.0°C | 75.0% | 0hPa | 0V | 08:11:00 | 00:00:00 | 00:00:00 | |
| DL9RDZ-1 | 2026-09-02 00:53:59 | 64.24850 | -21.42113 | 42° | 37km/h | 5809m | -13.8m/s | -25.1°C | 77.4% | 0hPa | 0V | 08:11:00 | 00:00:00 | 00:00:00 | |
| DL9RDZ-1 | 2026-09-02 00:53:49 | 64.24777 | -21.42246 | 39° | 40km/h | 5948m | -14.3m/s | -26.2°C | 73.7% | 0hPa | 0V | 08:12:00 | 00:00:00 | 00:00:00 | |
| DL9RDZ-1 | 2026-09-02 00:53:38 | 64.24690 | -21.42398 | 38° | 40km/h | 6097m | -14.2m/s | -27.6°C | 74.1% | 0hPa | 0V | 08:12:00 | 00:00:00 | 00:00:00 | |
| DL9RDZ-1 | 2026-09-02 00:53:29 | 64.24607 | -21.42542 | 34° | 40km/h | 6230m | -13.3m/s | -28.8°C | 76.3% | 0hPa | 0V | 08:12:00 | 00:00:00 | 00:00:00 | |
| DL9RDZ-1 | 2026-09-02 00:53:17 | 64.24509 | -21.42687 | 35° | 40km/h | 6382m | -13.8m/s | -29.8°C | 74.9% | 0hPa | 0V | 08:12:00 | 00:00:00 | 00:00:00 | |
| DL9RDZ-1 | 2026-09-02 00:53:06 | 64.24410 | -21.42840 | 37° | 44km/h | 6531m | -14.9m/s | -30.7°C | 73.5% | 0hPa | 0V | 08:12:00 | 00:00:00 | 00:00:00 | |
| DL9RDZ-1 | 2026-09-02 00:52:55 | 64.24316 | -21.43018 | 39° | 42km/h | 6685m | -13.6m/s | -32.0°C | 73.2% | 0hPa | 0V | 08:12:00 | 00:00:00 | 00:00:00 | |
| DL9RDZ-1 | 2026-09-02 00:52:44 | 64.24223 | -21.43180 | 40° | 46km/h | 6835m | -13.8m/s | -33.3°C | 72.6% | 0hPa | 0V | 08:12:00 | 00:00:00 | 00:00:00 | |
| DL9RDZ-1 | 2026-09-02 00:52:33 | 64.24123 | -21.43369 | 42° | 47km/h | 6984m | -15.3m/s | -34.2°C | 70.5% | 0hPa | 0V | 08:12:00 | 00:00:00 | 00:00:00 | |
| DL9RDZ-1 | 2026-09-02 00:52:22 | 64.24019 | -21.43574 | 46° | 53km/h | 7132m | -15.2m/s | -34.9°C | 69.8% | 0hPa | 0V | 08:12:00 | 00:00:00 | 00:00:00 | |
| DL9RDZ-1 | 2026-09-02 00:52:11 | 64.23907 | -21.43828 | 46° | 60km/h | 7284m | -14.5m/s | -35.5°C | 72.5% | 0hPa | 0V | 08:13:00 | 00:00:00 | 00:00:00 | |
| DL9RDZ-1 | 2026-09-02 00:52:01 | 64.23802 | -21.44108 | 53° | 62km/h | 7420m | -15.3m/s | -36.5°C | 71.0% | 0hPa | 0V | 08:13:00 | 00:00:00 | 00:00:00 | |
| DL9RDZ-1 | 2026-09-02 00:51:50 | 64.23697 | -21.44441 | 57° | 64km/h | 7573m | -15.4m/s | -37.6°C | 70.4% | 0hPa | 0V | 08:13:00 | 00:00:00 | 00:00:00 | |
| DL9RDZ-1 | 2026-09-02 00:51:39 | 64.23593 | -21.44773 | 55° | 62km/h | 7733m | -15.8m/s | -39.0°C | 68.5% | 0hPa | 0V | 08:13:00 | 00:00:00 | 00:00:00 | |
| DL9RDZ-1 | 2026-09-02 00:51:28 | 64.23489 | -21.45101 | 55° | 62km/h | 7895m | -15.3m/s | -40.5°C | 64.8% | 0hPa | 0V | 08:13:00 | 00:00:00 | 00:00:00 | |
| DL9RDZ-1 | 2026-09-02 00:51:17 | 64.23390 | -21.45427 | 56° | 62km/h | 8048m | -14.9m/s | -41.8°C | 62.4% | 0hPa | 0V | 08:14:00 | 00:00:00 | 00:00:00 | |
| DL9RDZ-1 | 2026-09-02 00:51:06 | 64.23292 | -21.45753 | 59° | 62km/h | 8202m | -14.2m/s | -43.0°C | 62.4% | 0hPa | 0V | 08:14:00 | 00:00:00 | 00:00:00 | |
| DL9RDZ-1 | 2026-09-02 00:50:57 | 64.23206 | -21.46043 | 55° | 60km/h | 8341m | -15.5m/s | -44.3°C | 63.8% | 0hPa | 0V | 08:14:00 | 00:00:00 | 00:00:00 | |
| DL9RDZ-1 | 2026-09-02 00:50:45 | 64.23107 | -21.46364 | 54° | 62km/h | 8496m | -14.6m/s | -45.7°C | 66.4% | 0hPa | 0V | 08:14:00 | 00:00:00 | 00:00:00 | |
| DL9RDZ-1 | 2026-09-02 00:50:35 | 64.23013 | -21.46659 | 57° | 62km/h | 8633m | -13.5m/s | -47.0°C | 70.2% | 0hPa | 0V | 08:14:00 | 00:00:00 | 00:00:00 | |
| DL9RDZ-1 | 2026-09-02 00:50:14 | 64.22825 | -21.47271 | 57° | 58km/h | 8927m | -15.4m/s | -49.6°C | 64.1% | 0hPa | 0V | 08:15:00 | 00:00:00 | 00:00:00 | |
| DL9RDZ-1 | 2026-09-02 00:50:03 | 64.22732 | -21.47580 | 57° | 60km/h | 9081m | -14.7m/s | -51.1°C | 64.8% | 0hPa | 0V | 08:15:00 | 00:00:00 | 00:00:00 | |
| DL9RDZ-1 | 2026-09-02 00:49:52 | 64.22639 | -21.47887 | 57° | 60km/h | 9239m | -16.3m/s | -52.5°C | 63.4% | 0hPa | 0V | 08:15:00 | 00:00:00 | 00:00:00 | |
| DL9RDZ-1 | 2026-09-02 00:49:42 | 64.22553 | -21.48168 | 57° | 60km/h | 9391m | -15.4m/s | -53.9°C | 65.8% | 0hPa | 0V | 08:15:00 | 00:00:00 | 00:00:00 | |
| DL9RDZ-1 | 2026-09-02 00:49:31 | 64.22459 | -21.48490 | 58° | 66km/h | 9557m | -17.3m/s | -55.4°C | 68.2% | 0hPa | 0V | 08:16:00 | 00:00:00 | 00:00:00 | |
| DL9RDZ-1 | 2026-09-02 00:49:20 | 64.22359 | -21.48873 | 62° | 75km/h | 9735m | -17.5m/s | -56.1°C | 67.0% | 0hPa | 0V | 08:16:00 | 00:00:00 | 00:00:00 | |
| DL9RDZ-1 | 2026-09-02 00:49:09 | 64.22254 | -21.49307 | 62° | 82km/h | 9905m | -16.4m/s | -56.6°C | 57.1% | 0hPa | 0V | 08:16:00 | 00:00:00 | 00:00:00 | |
| DL9RDZ-1 | 2026-09-02 00:48:59 | 64.22147 | -21.49763 | 65° | 97km/h | 10054m | -15.9m/s | -57.0°C | 43.8% | 0hPa | 0V | 08:16:00 | 00:00:00 | 00:00:00 | |
| DL9RDZ-1 | 2026-09-02 00:48:48 | 64.22022 | -21.50331 | 67° | 102km/h | 10237m | -17.9m/s | -57.1°C | 31.4% | 0hPa | 0V | 08:17:00 | 00:00:00 | 00:00:00 | |
| DL9RDZ-1 | 2026-09-02 00:48:38 | 64.21915 | -21.50884 | 68° | 102km/h | 10407m | -18.9m/s | -57.0°C | 20.6% | 0hPa | 0V | 08:17:00 | 00:00:00 | 00:00:00 | |
| DL9RDZ-1 | 2026-09-02 00:48:27 | 64.21819 | -21.51481 | 72° | 91km/h | 10589m | -17.4m/s | -56.4°C | 14.3% | 0hPa | 0V | 08:17:00 | 00:00:00 | 00:00:00 | |
| DL9RDZ-1 | 2026-09-02 00:48:16 | 64.21741 | -21.51986 | 68° | 78km/h | 10768m | -16.5m/s | -55.2°C | 10.4% | 0hPa | 0V | 08:17:00 | 00:00:00 | 00:00:00 | |
| DL9RDZ-1 | 2026-09-02 00:48:05 | 64.21651 | -21.52453 | 69° | 78km/h | 10950m | -16.0m/s | -54.0°C | 7.1% | 0hPa | 0V | 08:17:00 | 00:00:00 | 00:00:00 | |
| DL9RDZ-1 | 2026-09-02 00:47:54 | 64.21582 | -21.52877 | 72° | 69km/h | 11127m | -15.3m/s | -52.1°C | 3.9% | 0hPa | 0V | 08:17:00 | 00:00:00 | 00:00:00 | |
| DL9RDZ-1 | 2026-09-02 00:47:43 | 64.21526 | -21.53283 | 74° | 64km/h | 11304m | -19.3m/s | -50.5°C | 2.7% | 0hPa | 0V | 08:17:00 | 00:00:00 | 00:00:00 | |
| DL9RDZ-1 | 2026-09-02 00:47:33 | 64.21481 | -21.53616 | 74° | 60km/h | 11458m | -17.4m/s | -49.8°C | 2.3% | 0hPa | 0V | 08:17:00 | 00:00:00 | 00:00:00 | |
| DL9RDZ-1 | 2026-09-02 00:47:23 | 64.21430 | -21.53968 | 76° | 64km/h | 11619m | -16.4m/s | -48.6°C | 1.7% | 0hPa | 0V | 08:17:00 | 00:00:00 | 00:00:00 | |
| DL9RDZ-1 | 2026-09-02 00:47:13 | 64.21400 | -21.54298 | 78° | 57km/h | 11781m | -14.3m/s | -48.3°C | 1.4% | 0hPa | 0V | 08:17:00 | 00:00:00 | 00:00:00 | |
| DL9RDZ-1 | 2026-09-02 00:47:02 | 64.21366 | -21.54632 | 80° | 51km/h | 11958m | -14.7m/s | -47.9°C | 1.3% | 0hPa | 0V | 08:18:00 | 00:00:00 | 00:00:00 | |
| DL9RDZ-1 | 2026-09-02 00:46:52 | 64.21331 | -21.54925 | 70° | 49km/h | 12118m | -16.8m/s | -47.7°C | 1.2% | 0hPa | 0V | 08:18:00 | 00:00:00 | 00:00:00 | |
| DL9RDZ-1 | 2026-09-02 00:46:41 | 64.21292 | -21.55222 | 74° | 47km/h | 12290m | -15.5m/s | -47.0°C | 1.2% | 0hPa | 0V | 08:18:00 | 00:00:00 | 00:00:00 | |
| DL9RDZ-1 | 2026-09-02 00:46:30 | 64.21245 | -21.55511 | 72° | 49km/h | 12464m | -16.3m/s | -47.0°C | 1.1% | 0hPa | 0V | 08:18:00 | 00:00:00 | 00:00:00 | |
| DL9RDZ-1 | 2026-09-02 00:46:19 | 64.21203 | -21.55800 | 73° | 49km/h | 12647m | -17.9m/s | -46.2°C | 1.0% | 0hPa | 0V | 08:18:00 | 00:00:00 | 00:00:00 | |
| DL9RDZ-1 | 2026-09-02 00:46:09 | 64.21162 | -21.56115 | 76° | 51km/h | 12830m | -18.7m/s | -46.0°C | 1.0% | 0hPa | 0V | 08:19:00 | 00:00:00 | 00:00:00 | |
| DL9RDZ-1 | 2026-09-02 00:45:58 | 64.21123 | -21.56417 | 75° | 51km/h | 13029m | -18.8m/s | -46.6°C | 1.0% | 0hPa | 0V | 08:19:00 | 00:00:00 | 00:00:00 | |
| DL9RDZ-1 | 2026-09-02 00:45:46 | 64.21077 | -21.56727 | 69° | 49km/h | 13205m | -16.2m/s | -47.2°C | 1.1% | 0hPa | 0V | 08:19:00 | 00:00:00 | 00:00:00 | |
| DL9RDZ-1 | 2026-09-02 00:45:35 | 64.21031 | -21.57039 | 80° | 53km/h | 13393m | -19.1m/s | -46.6°C | 1.0% | 0hPa | 0V | 08:19:00 | 00:00:00 | 00:00:00 | |
| DL9RDZ-1 | 2026-09-02 00:45:24 | 64.20998 | -21.57330 | 71° | 44km/h | 13589m | -18.9m/s | -47.2°C | 1.0% | 0hPa | 0V | 08:20:00 | 00:00:00 | 00:00:00 | |
| DL9RDZ-1 | 2026-09-02 00:45:13 | 64.20944 | -21.57596 | 66° | 47km/h | 13782m | -19.4m/s | -46.9°C | 1.0% | 0hPa | 0V | 08:20:00 | 00:00:00 | 00:00:00 | |
| DL9RDZ-1 | 2026-09-02 00:45:03 | 64.20893 | -21.57854 | 70° | 53km/h | 13954m | -19.1m/s | -47.3°C | 1.0% | 0hPa | 0V | 08:20:00 | 00:00:00 | 00:00:00 | |
| DL9RDZ-1 | 2026-09-02 00:44:53 | 64.20843 | -21.58132 | 70° | 53km/h | 14134m | -19.3m/s | -46.8°C | 1.0% | 0hPa | 0V | 08:20:00 | 00:00:00 | 00:00:00 | |
| DL9RDZ-1 | 2026-09-02 00:44:42 | 64.20793 | -21.58453 | 72° | 51km/h | 14336m | -19.1m/s | -46.8°C | 1.0% | 0hPa | 0V | 08:20:00 | 00:00:00 | 00:00:00 | |
| DL9RDZ-1 | 2026-09-02 00:44:31 | 64.20736 | -21.58775 | 67° | 55km/h | 14532m | -18.6m/s | -46.1°C | 0.9% | 0hPa | 0V | 08:21:00 | 00:00:00 | 00:00:00 | |
| DL9RDZ-1 | 2026-09-02 00:44:20 | 64.20676 | -21.59132 | 75° | 60km/h | 14723m | -17.3m/s | -47.5°C | 1.0% | 0hPa | 0V | 08:21:00 | 00:00:00 | 00:00:00 | |
| DL9RDZ-1 | 2026-09-02 00:43:59 | 64.20624 | -21.59757 | 86° | 51km/h | 15098m | -18.7m/s | -47.4°C | 1.0% | 0hPa | 0V | 08:21:00 | 00:00:00 | 00:00:00 | |
| DL9RDZ-1 | 2026-09-02 00:43:49 | 64.20623 | -21.60002 | 88° | 38km/h | 15291m | -20.7m/s | -47.2°C | 1.0% | 0hPa | 0V | 08:21:00 | 00:00:00 | 00:00:00 | |
| DL9RDZ-1 | 2026-09-02 00:43:38 | 64.20605 | -21.60246 | 80° | 42km/h | 15506m | -20.4m/s | -47.4°C | 0.9% | 0hPa | 0V | 08:22:00 | 00:00:00 | 00:00:00 | |
| DL9RDZ-1 | 2026-09-02 00:43:27 | 64.20575 | -21.60508 | 75° | 40km/h | 15709m | -19.5m/s | -47.9°C | 1.0% | 0hPa | 0V | 08:22:00 | 00:00:00 | 00:00:00 | |
| DL9RDZ-1 | 2026-09-02 00:43:16 | 64.20547 | -21.60776 | 82° | 47km/h | 15917m | -20.6m/s | -47.6°C | 0.9% | 0hPa | 0V | 08:22:00 | 00:00:00 | 00:00:00 | |
| DL9RDZ-1 | 2026-09-02 00:43:05 | 64.20533 | -21.61069 | 85° | 42km/h | 16139m | -22.4m/s | -47.8°C | 0.9% | 0hPa | 0V | 08:22:00 | 00:00:00 | 00:00:00 | |
| DL9RDZ-1 | 2026-09-02 00:42:55 | 64.20510 | -21.61303 | 71° | 44km/h | 16348m | -22.1m/s | -46.9°C | 0.9% | 0hPa | 0V | 08:22:00 | 00:00:00 | 00:00:00 | |
| DL9RDZ-1 | 2026-09-02 00:42:44 | 64.20471 | -21.61554 | 72° | 38km/h | 16573m | -21.2m/s | -47.0°C | 0.9% | 0hPa | 0V | 08:23:00 | 00:00:00 | 00:00:00 | |
| DL9RDZ-1 | 2026-09-02 00:42:33 | 64.20439 | -21.61786 | 84° | 35km/h | 16795m | -20.0m/s | -46.1°C | 0.8% | 0hPa | 0V | 08:23:00 | 00:00:00 | 00:00:00 | |
| DL9RDZ-1 | 2026-09-02 00:42:23 | 64.20431 | -21.61969 | 72° | 27km/h | 17020m | -20.2m/s | -45.6°C | 0.8% | 0hPa | 0V | 08:23:00 | 00:00:00 | 00:00:00 | |
| DL9RDZ-1 | 2026-09-02 00:42:13 | 64.20395 | -21.62151 | 72° | 42km/h | 17233m | -20.6m/s | -46.4°C | 0.8% | 0hPa | 0V | 08:23:00 | 00:00:00 | 00:00:00 | |
| DL9RDZ-1 | 2026-09-02 00:41:50 | 64.20343 | -21.62573 | 74° | 42km/h | 17751m | -25.2m/s | -46.4°C | 0.8% | 0hPa | 0V | 08:23:00 | 00:00:00 | 00:00:00 | |
| DL9RDZ-1 | 2026-09-02 00:41:39 | 64.20325 | -21.62830 | 93° | 38km/h | 18003m | -25.0m/s | -46.9°C | 0.8% | 0hPa | 0V | 08:23:00 | 00:00:00 | 00:00:00 | |
| DL9RDZ-1 | 2026-09-02 00:41:29 | 64.20319 | -21.62988 | 75° | 22km/h | 18223m | -22.9m/s | -47.0°C | 0.8% | 0hPa | 0V | 08:23:00 | 00:00:00 | 00:00:00 | |
| DL9RDZ-1 | 2026-09-02 00:41:18 | 64.20298 | -21.63167 | 87° | 33km/h | 18474m | -23.5m/s | -47.1°C | 0.8% | 0hPa | 0V | 08:23:00 | 00:00:00 | 00:00:00 | |
| DL9RDZ-1 | 2026-09-02 00:41:08 | 64.20290 | -21.63347 | 81° | 27km/h | 18705m | -26.4m/s | -47.2°C | 0.8% | 0hPa | 0V | 08:24:00 | 00:00:00 | 00:00:00 | |
| DL9RDZ-1 | 2026-09-02 00:40:57 | 64.20262 | -21.63486 | 53° | 26km/h | 18972m | -25.1m/s | -47.4°C | 0.8% | 0hPa | 0V | 08:24:00 | 00:00:00 | 00:00:00 | |
| DL9RDZ-1 | 2026-09-02 00:40:47 | 64.20224 | -21.63623 | 63° | 31km/h | 19208m | -24.0m/s | -47.5°C | 0.8% | 0hPa | 0V | 08:24:00 | 00:00:00 | 00:00:00 | |
| DL9RDZ-1 | 2026-09-02 00:40:36 | 64.20182 | -21.63744 | 35° | 22km/h | 19484m | -23.4m/s | -47.8°C | 0.9% | 0hPa | 0V | 08:24:00 | 00:00:00 | 00:00:00 | |
| DL9RDZ-1 | 2026-09-02 00:40:25 | 64.20110 | -21.63877 | 49° | 38km/h | 19746m | -26.2m/s | -48.0°C | 0.9% | 0hPa | 0V | 08:24:00 | 00:00:00 | 00:00:00 | |
| DL9RDZ-1 | 2026-09-02 00:40:15 | 64.20056 | -21.64060 | 67° | 37km/h | 20015m | -29.1m/s | -48.2°C | 0.8% | 0hPa | 0V | 08:25:00 | 00:00:00 | 00:00:00 | |
| DL9RDZ-1 | 2026-09-02 00:40:04 | 64.20038 | -21.64286 | 100° | 31km/h | 20309m | -27.3m/s | -47.9°C | 0.8% | 0hPa | 0V | 08:25:00 | 00:00:00 | 00:00:00 | |
| DL9RDZ-1 | 2026-09-02 00:39:53 | 64.20044 | -21.64434 | 76° | 20km/h | 20599m | -28.4m/s | -48.1°C | 0.8% | 0hPa | 0V | 08:25:00 | 00:00:00 | 00:00:00 | |
| DL9RDZ-1 | 2026-09-02 00:39:42 | 64.20012 | -21.64593 | 75° | 35km/h | 20893m | -29.5m/s | -48.6°C | 0.9% | 0hPa | 0V | 08:25:00 | 00:00:00 | 00:00:00 | |
| DL9RDZ-1 | 2026-09-02 00:39:32 | 64.19991 | -21.64790 | 75° | 31km/h | 21170m | -26.8m/s | -47.9°C | 0.8% | 0hPa | 0V | 08:25:00 | 00:00:00 | 00:00:00 | |
| DL9RDZ-1 | 2026-09-02 00:39:21 | 64.19965 | -21.64967 | 71° | 29km/h | 21488m | -28.3m/s | -48.6°C | 0.8% | 0hPa | 0V | 08:26:00 | 00:00:00 | 00:00:00 | |
| DL9RDZ-1 | 2026-09-02 00:39:11 | 64.19951 | -21.65128 | 92° | 24km/h | 21760m | -28.8m/s | -48.7°C | 0.8% | 0hPa | 0V | 08:26:00 | 00:00:00 | 00:00:00 | |
| DL9RDZ-1 | 2026-09-02 00:39:00 | 64.19941 | -21.65249 | 57° | 24km/h | 22065m | -28.0m/s | -47.9°C | 0.8% | 0hPa | 0V | 08:26:00 | 00:00:00 | 00:00:00 | |
| DL9RDZ-1 | 2026-09-02 00:38:50 | 64.19901 | -21.65390 | 73° | 33km/h | 22340m | -28.4m/s | -48.6°C | 0.8% | 0hPa | 0V | 08:26:00 | 00:00:00 | 00:00:00 | |
| DL9RDZ-1 | 2026-09-02 00:38:39 | 64.19893 | -21.65573 | 93° | 27km/h | 22660m | -27.9m/s | -48.1°C | 0.8% | 0hPa | 0V | 08:26:00 | 00:00:00 | 00:00:00 | |
| DL9RDZ-1 | 2026-09-02 00:38:28 | 64.19882 | -21.65718 | 66° | 18km/h | 22981m | -32.2m/s | -47.2°C | 0.8% | 0hPa | 0V | 08:27:00 | 00:00:00 | 00:00:00 | |
| DL9RDZ-1 | 2026-09-02 00:38:17 | 64.19847 | -21.65827 | 56° | 26km/h | 23307m | -26.5m/s | -46.4°C | 0.7% | 0hPa | 0V | 08:27:00 | 00:00:00 | 00:00:00 | |
| DL9RDZ-1 | 2026-09-02 00:38:07 | 64.19807 | -21.65944 | 50° | 26km/h | 23590m | -32.0m/s | -46.3°C | 0.7% | 0hPa | 0V | 08:27:00 | 00:00:00 | 00:00:00 | |
| DL9RDZ-1 | 2026-09-02 00:37:57 | 64.19759 | -21.66073 | 53° | 35km/h | 23894m | -26.3m/s | -47.0°C | 0.7% | 0hPa | 0V | 08:27:00 | 00:00:00 | 00:00:00 | |
| DL9RDZ-1 | 2026-09-02 00:37:47 | 64.19698 | -21.66228 | 54° | 35km/h | 24190m | -31.5m/s | -47.3°C | 0.7% | 0hPa | 0V | 08:27:00 | 00:00:00 | 00:00:00 | |
| DL9RDZ-1 | 2026-09-02 00:37:36 | 64.19646 | -21.66386 | 56° | 29km/h | 24541m | -33.8m/s | -47.1°C | 0.7% | 0hPa | 0V | 08:28:00 | 00:00:00 | 00:00:00 | |
| DL9RDZ-1 | 2026-09-02 00:37:25 | 64.19610 | -21.66540 | 69° | 20km/h | 24931m | -36.4m/s | -46.7°C | 0.7% | 0hPa | 0V | 08:28:00 | 00:00:00 | 00:00:00 | |
| DL9RDZ-1 | 2026-09-02 00:37:14 | 64.19580 | -21.66579 | 14° | 16km/h | 25290m | -34.4m/s | -45.7°C | 0.6% | 0hPa | 0V | 08:28:00 | 00:00:00 | 00:00:00 | |
| DL9RDZ-1 | 2026-09-02 00:37:04 | 64.19539 | -21.66663 | 56° | 27km/h | 25622m | -32.6m/s | -47.0°C | 0.7% | 0hPa | 0V | 08:28:00 | 00:00:00 | 00:00:00 | |
| DL9RDZ-1 | 2026-09-02 00:36:53 | 64.19526 | -21.66829 | 100° | 27km/h | 25970m | -30.1m/s | -47.7°C | 0.7% | 0hPa | 0V | 08:29:00 | 00:00:00 | 00:00:00 | |
| DL9RDZ-1 | 2026-09-02 00:36:42 | 64.19510 | -21.66891 | 6° | 24km/h | 26275m | -24.8m/s | -47.7°C | 0.8% | 0hPa | 0V | 08:29:00 | 00:00:00 | 00:00:00 | |
| DL9RDZ-1 | 2026-09-02 00:36:33 | 64.19472 | -21.66998 | 98° | 31km/h | 26547m | -27.1m/s | -46.3°C | 0.7% | 0hPa | 0V | 08:29:00 | 00:00:00 | 00:00:00 | |
| DL9RDZ-1 | 2026-09-02 00:36:22 | 64.19506 | -21.67131 | 126° | 18km/h | 26850m | -33.8m/s | -46.3°C | 0.7% | 0hPa | 0V | 08:29:00 | 00:00:00 | 00:00:00 | |
| DL9RDZ-1 | 2026-09-02 00:36:11 | 64.19515 | -21.67180 | 78° | 5km/h | 27199m | -35.6m/s | -47.2°C | 0.7% | 0hPa | 0V | 08:29:00 | 00:00:00 | 00:00:00 | |
| DL9RDZ-1 | 2026-09-02 00:36:00 | 64.19505 | -21.67188 | 16° | 13km/h | 27543m | -35.4m/s | -47.2°C | 0.8% | 0hPa | 0V | 00:00:00 | 00:00:00 | 00:00:00 | |
| DL9RDZ-1 | 2026-09-02 00:35:50 | 64.19480 | -21.67245 | 77° | 15km/h | 27872m | -40.1m/s | -46.8°C | 0.7% | 0hPa | 0V | 00:00:00 | 00:00:00 | 00:00:00 | |
| DL9RDZ-1 | 2026-09-02 00:35:39 | 64.19475 | -21.67299 | 77° | 7km/h | 28236m | -33.1m/s | -46.1°C | 0.7% | 0hPa | 0V | 00:00:00 | 00:00:00 | 00:00:00 | |
| DL9RDZ-1 | 2026-09-02 00:35:29 | 64.19470 | -21.67327 | 330° | 9km/h | 28575m | -32.3m/s | -45.3°C | 0.6% | 0hPa | 0V | 00:00:00 | 00:00:00 | 00:00:00 | |
| DL9RDZ-1 | 2026-09-02 00:34:34 | 64.19201 | -21.67195 | 1° | 35km/h | 30147m | 5.0m/s | -45.2°C | 0.6% | 0hPa | 0V | 00:00:00 | 00:00:00 | 00:00:00 | |
| DL9RDZ-1 | 2026-09-02 00:34:22 | 64.19125 | -21.67179 | 356° | 24km/h | 30072m | 7.0m/s | -45.3°C | 0.6% | 0hPa | 0V | 00:00:00 | 00:00:00 | 00:00:00 | |
| DL9RDZ-1 | 2026-09-02 00:34:11 | 64.19058 | -21.67162 | 336° | 15km/h | 30003m | 6.8m/s | -45.5°C | 0.6% | 0hPa | 0V | 00:00:00 | 00:00:00 | 00:00:00 | |
| DL9RDZ-1 | 2026-09-02 00:34:00 | 64.19017 | -21.67154 | 340° | 22km/h | 29931m | 5.8m/s | -45.5°C | 0.6% | 0hPa | 0V | 00:00:00 | 00:00:00 | 00:00:00 | |
| DL9RDZ-1 | 2026-09-02 00:33:47 | 64.18980 | -21.67170 | 40° | 15km/h | 29848m | 7.1m/s | -45.3°C | 0.6% | 0hPa | 0V | 00:00:00 | 00:00:00 | 00:00:00 | |
| DL9RDZ-1 | 2026-09-02 00:33:37 | 64.18937 | -21.67142 | 33° | 22km/h | 29776m | 6.4m/s | -45.4°C | 0.6% | 0hPa | 0V | 00:00:00 | 00:00:00 | 00:00:00 | |
| DL9RDZ-1 | 2026-09-02 00:33:25 | 64.18871 | -21.67138 | 351° | 27km/h | 29709m | 6.4m/s | -45.5°C | 0.7% | 0hPa | 0V | 00:00:00 | 00:00:00 | 00:00:00 | |
| DL9RDZ-1 | 2026-09-02 00:33:15 | 64.18819 | -21.67113 | 313° | 22km/h | 29647m | 5.1m/s | -45.6°C | 0.6% | 0hPa | 0V | 00:00:00 | 00:00:00 | 00:00:00 | |
| DL9RDZ-1 | 2026-09-02 00:33:06 | 64.18754 | -21.67075 | 352° | 24km/h | 29583m | 5.8m/s | -45.4°C | 0.6% | 0hPa | 0V | 00:00:00 | 00:00:00 | 00:00:00 | |
| DL9RDZ-1 | 2026-09-02 00:32:53 | 64.18674 | -21.66956 | 340° | 33km/h | 29509m | 6.9m/s | -45.4°C | 0.6% | 0hPa | 0V | 00:00:00 | 00:00:00 | 00:00:00 | |
| DL9RDZ-1 | 2026-09-02 00:32:41 | 64.18575 | -21.66810 | 324° | 31km/h | 29436m | 6.3m/s | -45.4°C | 0.7% | 0hPa | 0V | 00:00:00 | 00:00:00 | 00:00:00 | |
| DL9RDZ-1 | 2026-09-02 00:32:29 | 64.18513 | -21.66712 | 327° | 29km/h | 29362m | 5.7m/s | -45.0°C | 0.6% | 0hPa | 0V | 00:00:00 | 00:00:00 | 00:00:00 | |
| DL9RDZ-1 | 2026-09-02 00:32:17 | 64.18471 | -21.66627 | 300° | 15km/h | 29289m | 6.6m/s | -44.7°C | 0.6% | 0hPa | 0V | 00:00:00 | 00:00:00 | 00:00:00 | |
| DL9RDZ-1 | 2026-09-02 00:32:06 | 64.18439 | -21.66578 | 360° | 7km/h | 29222m | 6.8m/s | -44.7°C | 0.6% | 0hPa | 0V | 00:00:00 | 00:00:00 | 00:00:00 | |
| DL9RDZ-1 | 2026-09-02 00:31:53 | 64.18424 | -21.66580 | 55° | 9km/h | 29143m | 6.9m/s | -45.2°C | 0.6% | 0hPa | 0V | 00:00:00 | 00:00:00 | 00:00:00 | |
| DL9RDZ-1 | 2026-09-02 00:31:43 | 64.18419 | -21.66606 | 346° | 11km/h | 29082m | 5.6m/s | -45.4°C | 0.6% | 0hPa | 0V | 00:00:00 | 00:00:00 | 00:00:00 | |
| DL9RDZ-1 | 2026-09-02 00:31:32 | 64.18402 | -21.66631 | 61° | 16km/h | 29015m | 5.8m/s | -45.8°C | 0.7% | 0hPa | 0V | 00:00:00 | 00:00:00 | 00:00:00 | |
| DL9RDZ-1 | 2026-09-02 00:31:21 | 64.18368 | -21.66630 | 77° | 11km/h | 28942m | 5.8m/s | -45.8°C | 0.7% | 0hPa | 0V | 00:00:00 | 00:00:00 | 00:00:00 | |
| DL9RDZ-1 | 2026-09-02 00:31:07 | 64.18321 | -21.66628 | 3° | 9km/h | 28863m | 7.0m/s | -45.9°C | 0.7% | 0hPa | 0V | 00:00:00 | 00:00:00 | 00:00:00 | |
| DL9RDZ-1 | 2026-09-02 00:30:55 | 64.18274 | -21.66573 | 302° | 26km/h | 28791m | 5.4m/s | -46.3°C | 0.7% | 0hPa | 0V | 00:00:00 | 00:00:00 | 00:00:00 | |
| DL9RDZ-1 | 2026-09-02 00:30:44 | 64.18249 | -21.66520 | 322° | 18km/h | 28720m | 6.1m/s | -45.9°C | 0.7% | 0hPa | 0V | 00:00:00 | 00:00:00 | 00:00:00 | |
| DL9RDZ-1 | 2026-09-02 00:30:23 | 64.18234 | -21.66476 | 90° | 5km/h | 28589m | 7.7m/s | -46.0°C | 0.6% | 0hPa | 0V | 00:00:00 | 00:00:00 | 00:00:00 | |
| DL9RDZ-1 | 2026-09-02 00:30:13 | 64.18244 | -21.66567 | 62° | 16km/h | 28517m | 6.3m/s | -46.1°C | 0.7% | 0hPa | 0V | 00:00:00 | 00:00:00 | 00:00:00 | |
| DL9RDZ-1 | 2026-09-02 00:30:00 | 64.18241 | -21.66658 | 89° | 20km/h | 28442m | 7.4m/s | -46.3°C | 0.7% | 0hPa | 0V | 00:00:00 | 00:00:00 | 00:00:00 | |
| DL9RDZ-1 | 2026-09-02 00:29:48 | 64.18225 | -21.66712 | 347° | 5km/h | 28367m | 5.5m/s | -46.4°C | 0.7% | 0hPa | 0V | 00:00:00 | 00:00:00 | 00:00:00 | |
| DL9RDZ-1 | 2026-09-02 00:29:38 | 64.18214 | -21.66751 | 71° | 7km/h | 28303m | 5.2m/s | -46.6°C | 0.7% | 0hPa | 0V | 00:00:00 | 00:00:00 | 00:00:00 | |
| DL9RDZ-1 | 2026-09-02 00:29:28 | 64.18219 | -21.66782 | 104° | 13km/h | 28240m | 7.5m/s | -46.8°C | 0.7% | 0hPa | 0V | 00:00:00 | 00:00:00 | 00:00:00 | |
| DL9RDZ-1 | 2026-09-02 00:29:16 | 64.18217 | -21.66867 | 105° | 16km/h | 28165m | 6.0m/s | -47.0°C | 0.7% | 0hPa | 0V | 00:00:00 | 00:00:00 | 00:00:00 | |
| DL9RDZ-1 | 2026-09-02 00:29:04 | 64.18219 | -21.66942 | 131° | 16km/h | 28090m | 7.5m/s | -47.3°C | 0.7% | 0hPa | 0V | 00:00:00 | 00:00:00 | 00:00:00 | |
| DL9RDZ-1 | 2026-09-02 00:28:53 | 64.18218 | -21.67031 | 83° | 18km/h | 28020m | 5.7m/s | -47.2°C | 0.7% | 0hPa | 0V | 00:00:00 | 00:00:00 | 00:00:00 | |
| DL9RDZ-1 | 2026-09-02 00:28:42 | 64.18215 | -21.67134 | 53° | 13km/h | 27953m | 5.7m/s | -47.2°C | 0.7% | 0hPa | 0V | 00:00:00 | 00:00:00 | 00:00:00 | |
| DL9RDZ-1 | 2026-09-02 00:28:32 | 64.18205 | -21.67225 | 93° | 22km/h | 27891m | 5.8m/s | -47.4°C | 0.7% | 0hPa | 0V | 00:00:00 | 00:00:00 | 00:00:00 | |
| DL9RDZ-1 | 2026-09-02 00:28:20 | 64.18173 | -21.67342 | 51° | 27km/h | 27818m | 4.7m/s | -47.1°C | 0.7% | 0hPa | 0V | 00:00:00 | 00:00:00 | 00:00:00 | |
| DL9RDZ-1 | 2026-09-02 00:28:06 | 64.18128 | -21.67440 | 31° | 20km/h | 27731m | 7.0m/s | -46.8°C | 0.7% | 0hPa | 0V | 00:00:00 | 00:00:00 | 00:00:00 | |
| DL9RDZ-1 | 2026-09-02 00:27:54 | 64.18088 | -21.67489 | 29° | 18km/h | 27658m | 5.5m/s | -46.8°C | 0.7% | 0hPa | 0V | 00:00:00 | 00:00:00 | 00:00:00 | |
| DL9RDZ-1 | 2026-09-02 00:27:40 | 64.18061 | -21.67518 | 65° | 5km/h | 27573m | 6.8m/s | -47.6°C | 0.7% | 0hPa | 0V | 00:00:00 | 00:00:00 | 00:00:00 | |
| DL9RDZ-1 | 2026-09-02 00:27:27 | 64.18047 | -21.67557 | 127° | 5km/h | 27495m | 6.6m/s | -47.7°C | 0.7% | 0hPa | 0V | 00:00:00 | 00:00:00 | 00:00:00 | |
| DL9RDZ-1 | 2026-09-02 00:27:17 | 64.18051 | -21.67591 | 89° | 4km/h | 27437m | 6.2m/s | -47.8°C | 0.8% | 0hPa | 0V | 00:00:00 | 00:00:00 | 00:00:00 | |
| DL9RDZ-1 | 2026-09-02 00:27:06 | 64.18045 | -21.67640 | 55° | 9km/h | 27372m | 6.1m/s | -47.7°C | 0.8% | 0hPa | 0V | 00:00:00 | 00:00:00 | 00:00:00 | |
| DL9RDZ-1 | 2026-09-02 00:26:56 | 64.18043 | -21.67684 | 117° | 11km/h | 27306m | 5.1m/s | -47.5°C | 0.7% | 0hPa | 0V | 00:00:00 | 00:00:00 | 00:00:00 | |
| DL9RDZ-1 | 2026-09-02 00:26:42 | 64.18047 | -21.67744 | 138° | 13km/h | 27230m | 6.3m/s | -47.3°C | 0.7% | 0hPa | 0V | 00:00:00 | 00:00:00 | 00:00:00 | |
| DL9RDZ-1 | 2026-09-02 00:26:31 | 64.18051 | -21.67813 | 68° | 9km/h | 27164m | 5.9m/s | -47.3°C | 0.7% | 0hPa | 0V | 00:00:00 | 00:00:00 | 00:00:00 | |
| DL9RDZ-1 | 2026-09-02 00:26:21 | 64.18062 | -21.67872 | 113° | 13km/h | 27104m | 5.3m/s | -47.2°C | 0.7% | 0hPa | 0V | 00:00:00 | 00:00:00 | 00:00:00 | |
| DL9RDZ-1 | 2026-09-02 00:26:10 | 64.18055 | -21.67950 | 125° | 11km/h | 27039m | 6.6m/s | -47.2°C | 0.7% | 0hPa | 0V | 00:00:00 | 00:00:00 | 00:00:00 | |
| DL9RDZ-1 | 2026-09-02 00:25:59 | 64.18076 | -21.68045 | 143° | 15km/h | 26973m | 5.1m/s | -46.9°C | 0.7% | 0hPa | 0V | 00:00:00 | 00:00:00 | 00:00:00 | |
| DL9RDZ-1 | 2026-09-02 00:25:47 | 64.18118 | -21.68168 | 128° | 24km/h | 26899m | 5.8m/s | -46.6°C | 0.8% | 0hPa | 0V | 00:00:00 | 00:00:00 | 00:00:00 | |
| DL9RDZ-1 | 2026-09-02 00:25:35 | 64.18155 | -21.68319 | 122° | 33km/h | 26826m | 6.5m/s | -46.3°C | 0.7% | 0hPa | 0V | 00:00:00 | 00:00:00 | 00:00:00 | |
| DL9RDZ-1 | 2026-09-02 00:25:24 | 64.18188 | -21.68501 | 116° | 37km/h | 26760m | 5.0m/s | -46.0°C | 0.7% | 0hPa | 0V | 00:00:00 | 00:00:00 | 00:00:00 | |
| DL9RDZ-1 | 2026-09-02 00:25:15 | 64.18208 | -21.68690 | 90° | 24km/h | 26700m | 5.8m/s | -45.9°C | 0.6% | 0hPa | 0V | 00:00:00 | 00:00:00 | 00:00:00 | |
| DL9RDZ-1 | 2026-09-02 00:25:01 | 64.18211 | -21.68922 | 61° | 33km/h | 26620m | 5.5m/s | -46.5°C | 0.7% | 0hPa | 0V | 00:00:00 | 00:00:00 | 00:00:00 | |
| DL9RDZ-1 | 2026-09-02 00:24:50 | 64.18186 | -21.69086 | 54° | 35km/h | 26553m | 6.4m/s | -47.0°C | 0.7% | 0hPa | 0V | 00:00:00 | 00:00:00 | 00:00:00 | |
| DL9RDZ-1 | 2026-09-02 00:24:38 | 64.18117 | -21.69240 | 39° | 26km/h | 26481m | 7.0m/s | -47.4°C | 0.7% | 0hPa | 0V | 00:00:00 | 00:00:00 | 00:00:00 | |
| DL9RDZ-1 | 2026-09-02 00:24:28 | 64.18048 | -21.69283 | 8° | 31km/h | 26421m | 6.9m/s | -47.5°C | 0.8% | 0hPa | 0V | 00:00:00 | 00:00:00 | 00:00:00 | |
| DL9RDZ-1 | 2026-09-02 00:24:17 | 64.17969 | -21.69296 | 1° | 29km/h | 26353m | 5.6m/s | -47.7°C | 0.8% | 0hPa | 0V | 00:00:00 | 00:00:00 | 00:00:00 | |
| DL9RDZ-1 | 2026-09-02 00:24:07 | 64.17923 | -21.69303 | 339° | 9km/h | 26294m | 4.9m/s | -47.8°C | 0.8% | 0hPa | 0V | 00:00:00 | 00:00:00 | 00:00:00 | |
| DL9RDZ-1 | 2026-09-02 00:23:54 | 64.17891 | -21.69325 | 105° | 7km/h | 26217m | 5.5m/s | -47.8°C | 0.8% | 0hPa | 0V | 00:00:00 | 00:00:00 | 00:00:00 | |
| DL9RDZ-1 | 2026-09-02 00:23:43 | 64.17886 | -21.69383 | 115° | 20km/h | 26149m | 5.6m/s | -47.7°C | 0.8% | 0hPa | 0V | 00:00:00 | 00:00:00 | 00:00:00 | |
| DL9RDZ-1 | 2026-09-02 00:23:30 | 64.17896 | -21.69519 | 114° | 27km/h | 26070m | 6.7m/s | -48.1°C | 0.8% | 0hPa | 0V | 00:00:00 | 00:00:00 | 00:00:00 | |
| DL9RDZ-1 | 2026-09-02 00:23:19 | 64.17905 | -21.69699 | 87° | 24km/h | 26003m | 5.5m/s | -47.9°C | 0.8% | 0hPa | 0V | 00:00:00 | 00:00:00 | 00:00:00 | |
| DL9RDZ-1 | 2026-09-02 00:23:09 | 64.17893 | -21.69879 | 79° | 29km/h | 25937m | 6.4m/s | -47.7°C | 0.8% | 0hPa | 0V | 00:00:00 | 00:00:00 | 00:00:00 | |
| DL9RDZ-1 | 2026-09-02 00:22:57 | 64.17885 | -21.70015 | 67° | 33km/h | 25871m | 5.9m/s | -47.5°C | 0.8% | 0hPa | 0V | 00:00:00 | 00:00:00 | 00:00:00 | |
| DL9RDZ-1 | 2026-09-02 00:22:46 | 64.17853 | -21.70177 | 65° | 15km/h | 25807m | 6.6m/s | -47.5°C | 0.8% | 0hPa | 0V | 00:00:00 | 00:00:00 | 00:00:00 | |
| DL9RDZ-1 | 2026-09-02 00:22:33 | 64.17801 | -21.70347 | 50° | 29km/h | 25731m | 5.4m/s | -47.5°C | 0.8% | 0hPa | 0V | 00:00:00 | 00:00:00 | 00:00:00 | |
| DL9RDZ-1 | 2026-09-02 00:22:23 | 64.17744 | -21.70512 | 53° | 35km/h | 25668m | 7.1m/s | -47.2°C | 0.8% | 0hPa | 0V | 00:00:00 | 00:00:00 | 00:00:00 | |
| DL9RDZ-1 | 2026-09-02 00:22:00 | 64.17617 | -21.70738 | 31° | 26km/h | 25529m | 5.4m/s | -46.3°C | 0.8% | 0hPa | 0V | 00:00:00 | 00:00:00 | 00:00:00 | |
| DL9RDZ-1 | 2026-09-02 00:21:43 | 64.17522 | -21.70838 | 8° | 26km/h | 25427m | 5.6m/s | -45.9°C | 0.8% | 0hPa | 0V | 00:00:00 | 00:00:00 | 00:00:00 | |
| DL9RDZ-1 | 2026-09-02 00:21:33 | 64.17471 | -21.70848 | 13° | 24km/h | 25366m | 5.2m/s | -45.8°C | 0.7% | 0hPa | 0V | 00:00:00 | 00:00:00 | 00:00:00 | |
| DL9RDZ-1 | 2026-09-02 00:21:22 | 64.17428 | -21.70856 | 359° | 15km/h | 25301m | 6.8m/s | -45.5°C | 0.7% | 0hPa | 0V | 00:00:00 | 00:00:00 | 00:00:00 | |
| DL9RDZ-1 | 2026-09-02 00:21:11 | 64.17396 | -21.70828 | 297° | 15km/h | 25237m | 4.5m/s | -45.6°C | 0.7% | 0hPa | 0V | 00:00:00 | 00:00:00 | 00:00:00 | |
| DL9RDZ-1 | 2026-09-02 00:20:56 | 64.17369 | -21.70812 | 360° | 13km/h | 25150m | 5.0m/s | -45.3°C | 0.7% | 0hPa | 0V | 00:00:00 | 00:00:00 | 00:00:00 | |
| DL9RDZ-1 | 2026-09-02 00:20:41 | 64.17336 | -21.70878 | 65° | 9km/h | 25065m | 6.1m/s | -46.0°C | 0.7% | 0hPa | 0V | 00:00:00 | 00:00:00 | 00:00:00 | |
| DL9RDZ-1 | 2026-09-02 00:20:30 | 64.17326 | -21.71014 | 57° | 24km/h | 24999m | 5.6m/s | -46.1°C | 0.7% | 0hPa | 0V | 00:00:00 | 00:00:00 | 00:00:00 | |
| DL9RDZ-1 | 2026-09-02 00:20:19 | 64.17307 | -21.71136 | 79° | 29km/h | 24931m | 5.4m/s | -46.4°C | 0.7% | 0hPa | 0V | 00:00:00 | 00:00:00 | 00:00:00 | |
| DL9RDZ-1 | 2026-09-02 00:20:08 | 64.17274 | -21.71312 | 61° | 33km/h | 24863m | 5.2m/s | -46.5°C | 0.7% | 0hPa | 0V | 00:00:00 | 00:00:00 | 00:00:00 | |
| DL9RDZ-1 | 2026-09-02 00:19:57 | 64.17239 | -21.71499 | 62° | 27km/h | 24796m | 5.0m/s | -46.9°C | 0.8% | 0hPa | 0V | 00:00:00 | 00:00:00 | 00:00:00 | |
| DL9RDZ-1 | 2026-09-02 00:19:46 | 64.17206 | -21.71686 | 47° | 26km/h | 24725m | 5.5m/s | -46.7°C | 0.8% | 0hPa | 0V | 00:00:00 | 00:00:00 | 00:00:00 | |
| DL9RDZ-1 | 2026-09-02 00:19:32 | 64.17147 | -21.71878 | 50° | 27km/h | 24647m | 6.7m/s | -46.9°C | 0.8% | 0hPa | 0V | 00:00:00 | 00:00:00 | 00:00:00 | |
| DL9RDZ-1 | 2026-09-02 00:19:21 | 64.17096 | -21.72014 | 46° | 29km/h | 24581m | 5.9m/s | -46.9°C | 0.8% | 0hPa | 0V | 00:00:00 | 00:00:00 | 00:00:00 | |
| DL9RDZ-1 | 2026-09-02 00:19:10 | 64.17065 | -21.72157 | 72° | 35km/h | 24513m | 5.0m/s | -47.2°C | 0.8% | 0hPa | 0V | 00:00:00 | 00:00:00 | 00:00:00 | |
| DL9RDZ-1 | 2026-09-02 00:18:59 | 64.17026 | -21.72338 | 56° | 29km/h | 24447m | 6.1m/s | -47.0°C | 0.8% | 0hPa | 0V | 00:00:00 | 00:00:00 | 00:00:00 | |
| DL9RDZ-1 | 2026-09-02 00:18:48 | 64.16980 | -21.72518 | 61° | 31km/h | 24383m | 5.8m/s | -47.1°C | 0.8% | 0hPa | 0V | 00:00:00 | 00:00:00 | 00:00:00 | |
| DL9RDZ-1 | 2026-09-02 00:18:37 | 64.16917 | -21.72648 | 53° | 33km/h | 24318m | 5.4m/s | -47.2°C | 0.8% | 0hPa | 0V | 00:00:00 | 00:00:00 | 00:00:00 | |
| DL9RDZ-1 | 2026-09-02 00:18:25 | 64.16861 | -21.72797 | 46° | 35km/h | 24249m | 5.9m/s | -47.3°C | 0.8% | 0hPa | 0V | 00:00:00 | 00:00:00 | 00:00:00 | |
| DL9RDZ-1 | 2026-09-02 00:18:12 | 64.16797 | -21.73003 | 43° | 31km/h | 24174m | 6.5m/s | -47.5°C | 0.8% | 0hPa | 0V | 00:00:00 | 00:00:00 | 00:00:00 | |
| DL9RDZ-1 | 2026-09-02 00:18:02 | 64.16736 | -21.73173 | 49° | 38km/h | 24116m | 6.3m/s | -47.6°C | 0.8% | 0hPa | 0V | 00:00:00 | 00:00:00 | 00:00:00 | |
| DL9RDZ-1 | 2026-09-02 00:17:51 | 64.16654 | -21.73347 | 50° | 42km/h | 24055m | 4.5m/s | -47.7°C | 0.8% | 0hPa | 0V | 00:00:00 | 00:00:00 | 00:00:00 | |
| DL9RDZ-1 | 2026-09-02 00:17:41 | 64.16600 | -21.73504 | 53° | 35km/h | 23999m | 5.8m/s | -47.5°C | 0.8% | 0hPa | 0V | 00:00:00 | 00:00:00 | 00:00:00 | |
| DL9RDZ-1 | 2026-09-02 00:17:30 | 64.16551 | -21.73675 | 62° | 27km/h | 23935m | 6.0m/s | -47.2°C | 0.8% | 0hPa | 0V | 00:00:00 | 00:00:00 | 00:00:00 | |
| DL9RDZ-1 | 2026-09-02 00:17:18 | 64.16497 | -21.73844 | 74° | 26km/h | 23868m | 6.3m/s | -47.2°C | 0.8% | 0hPa | 0V | 00:00:00 | 00:00:00 | 00:00:00 | |
| DL9RDZ-1 | 2026-09-02 00:17:05 | 64.16456 | -21.74015 | 54° | 31km/h | 23796m | 4.8m/s | -47.3°C | 0.8% | 0hPa | 0V | 00:00:00 | 00:00:00 | 00:00:00 | |
| DL9RDZ-1 | 2026-09-02 00:16:52 | 64.16404 | -21.74159 | 40° | 29km/h | 23724m | 6.1m/s | -47.1°C | 0.8% | 0hPa | 0V | 00:00:00 | 00:00:00 | 00:00:00 | |
| DL9RDZ-1 | 2026-09-02 00:16:39 | 64.16356 | -21.74293 | 52° | 26km/h | 23651m | 5.1m/s | -47.0°C | 0.8% | 0hPa | 0V | 00:00:00 | 00:00:00 | 00:00:00 | |
| DL9RDZ-1 | 2026-09-02 00:16:26 | 64.16326 | -21.74436 | 55° | 20km/h | 23578m | 5.8m/s | -47.0°C | 0.8% | 0hPa | 0V | 00:00:00 | 00:00:00 | 00:00:00 | |
| DL9RDZ-1 | 2026-09-02 00:16:15 | 64.16305 | -21.74599 | 69° | 27km/h | 23510m | 6.8m/s | -47.2°C | 0.8% | 0hPa | 0V | 00:00:00 | 00:00:00 | 00:00:00 | |
| DL9RDZ-1 | 2026-09-02 00:16:02 | 64.16258 | -21.74766 | 66° | 24km/h | 23442m | 6.4m/s | -47.1°C | 0.8% | 0hPa | 0V | 00:00:00 | 00:00:00 | 00:00:00 | |
| DL9RDZ-1 | 2026-09-02 00:15:48 | 64.16221 | -21.74930 | 62° | 16km/h | 23364m | 5.6m/s | -47.2°C | 0.8% | 0hPa | 0V | 00:00:00 | 00:00:00 | 00:00:00 | |
| DL9RDZ-1 | 2026-09-02 00:15:37 | 64.16190 | -21.75037 | 48° | 15km/h | 23299m | 5.0m/s | -47.4°C | 0.8% | 0hPa | 0V | 00:00:00 | 00:00:00 | 00:00:00 | |
| DL9RDZ-1 | 2026-09-02 00:15:25 | 64.16156 | -21.75155 | 34° | 24km/h | 23231m | 5.8m/s | -47.5°C | 0.8% | 0hPa | 0V | 00:00:00 | 00:00:00 | 00:00:00 | |
| DL9RDZ-1 | 2026-09-02 00:15:13 | 64.16129 | -21.75245 | 42° | 20km/h | 23160m | 4.8m/s | -47.7°C | 0.8% | 0hPa | 0V | 00:00:00 | 00:00:00 | 00:00:00 | |
| DL9RDZ-1 | 2026-09-02 00:15:03 | 64.16122 | -21.75356 | 105° | 20km/h | 23100m | 5.9m/s | -47.8°C | 0.9% | 0hPa | 0V | 00:00:00 | 00:00:00 | 00:00:00 | |
| DL9RDZ-1 | 2026-09-02 00:14:52 | 64.16108 | -21.75485 | 81° | 22km/h | 23034m | 7.1m/s | -47.9°C | 0.9% | 0hPa | 0V | 00:00:00 | 00:00:00 | 00:00:00 | |
| DL9RDZ-1 | 2026-09-02 00:14:40 | 64.16096 | -21.75643 | 72° | 27km/h | 22962m | 6.8m/s | -47.6°C | 0.8% | 0hPa | 0V | 00:00:00 | 00:00:00 | 00:00:00 | |
| DL9RDZ-1 | 2026-09-02 00:14:29 | 64.16075 | -21.75814 | 80° | 27km/h | 22896m | 5.8m/s | -47.6°C | 0.8% | 0hPa | 0V | 00:00:00 | 00:00:00 | 00:00:00 | |
| DL9RDZ-1 | 2026-09-02 00:14:19 | 64.16056 | -21.75970 | 66° | 27km/h | 22837m | 5.3m/s | -47.7°C | 0.8% | 0hPa | 0V | 00:00:00 | 00:00:00 | 00:00:00 | |
| DL9RDZ-1 | 2026-09-02 00:14:07 | 64.16040 | -21.76138 | 67° | 18km/h | 22766m | 5.4m/s | -47.9°C | 0.9% | 0hPa | 0V | 00:00:00 | 00:00:00 | 00:00:00 | |
| DL9RDZ-1 | 2026-09-02 00:13:56 | 64.16041 | -21.76308 | 100° | 22km/h | 22698m | 6.7m/s | -48.2°C | 0.9% | 0hPa | 0V | 00:00:00 | 00:00:00 | 00:00:00 | |
| DL9RDZ-1 | 2026-09-02 00:13:45 | 64.16052 | -21.76463 | 88° | 29km/h | 22636m | 5.4m/s | -48.4°C | 0.9% | 0hPa | 0V | 00:00:00 | 00:00:00 | 00:00:00 | |
| DL9RDZ-1 | 2026-09-02 00:13:23 | 64.16045 | -21.76830 | 76° | 26km/h | 22510m | 6.0m/s | -48.8°C | 0.9% | 0hPa | 0V | 00:00:00 | 00:00:00 | 00:00:00 | |
| DL9RDZ-1 | 2026-09-02 00:13:13 | 64.16020 | -21.76977 | 59° | 31km/h | 22452m | 6.5m/s | -48.7°C | 0.9% | 0hPa | 0V | 00:00:00 | 00:00:00 | 00:00:00 | |
| DL9RDZ-1 | 2026-09-02 00:13:02 | 64.15976 | -21.77186 | 53° | 42km/h | 22390m | 5.1m/s | -48.8°C | 0.9% | 0hPa | 0V | 00:00:00 | 00:00:00 | 00:00:00 | |
| DL9RDZ-1 | 2026-09-02 00:12:50 | 64.15912 | -21.77390 | 50° | 31km/h | 22321m | 5.8m/s | -48.6°C | 0.9% | 0hPa | 0V | 00:00:00 | 00:00:00 | 00:00:00 | |
| DL9RDZ-1 | 2026-09-02 00:12:39 | 64.15868 | -21.77543 | 56° | 31km/h | 22262m | 6.2m/s | -48.7°C | 0.9% | 0hPa | 0V | 00:00:00 | 00:00:00 | 00:00:00 | |
| DL9RDZ-1 | 2026-09-02 00:12:28 | 64.15806 | -21.77673 | 39° | 26km/h | 22202m | 6.0m/s | -48.6°C | 0.9% | 0hPa | 0V | 00:00:00 | 00:00:00 | 00:00:00 | |
| DL9RDZ-1 | 2026-09-02 00:12:17 | 64.15762 | -21.77792 | 56° | 27km/h | 22142m | 6.7m/s | -48.4°C | 0.9% | 0hPa | 0V | 00:00:00 | 00:00:00 | 00:00:00 | |
| DL9RDZ-1 | 2026-09-02 00:12:01 | 64.15735 | -21.77964 | 82° | 22km/h | 22056m | 5.2m/s | -48.8°C | 0.9% | 0hPa | 0V | 00:00:00 | 00:00:00 | 00:00:00 | |
| DL9RDZ-1 | 2026-09-02 00:11:51 | 64.15732 | -21.78082 | 100° | 18km/h | 22002m | 6.5m/s | -49.5°C | 1.0% | 0hPa | 0V | 00:00:00 | 00:00:00 | 00:00:00 | |
| DL9RDZ-1 | 2026-09-02 00:11:40 | 64.15742 | -21.78193 | 97° | 20km/h | 21943m | 5.1m/s | -49.8°C | 1.0% | 0hPa | 0V | 00:00:00 | 00:00:00 | 00:00:00 | |
| DL9RDZ-1 | 2026-09-02 00:11:22 | 64.15738 | -21.78464 | 86° | 33km/h | 21845m | 5.7m/s | -49.6°C | 1.0% | 0hPa | 0V | 00:00:00 | 00:00:00 | 00:00:00 | |
| DL9RDZ-1 | 2026-09-02 00:11:11 | 64.15730 | -21.78653 | 90° | 27km/h | 21783m | 6.4m/s | -49.7°C | 1.0% | 0hPa | 0V | 00:00:00 | 00:00:00 | 00:00:00 | |
| DL9RDZ-1 | 2026-09-02 00:11:01 | 64.15730 | -21.78807 | 77° | 26km/h | 21726m | 6.2m/s | -49.9°C | 1.0% | 0hPa | 0V | 00:00:00 | 00:00:00 | 00:00:00 | |
| DL9RDZ-1 | 2026-09-02 00:10:50 | 64.15722 | -21.78976 | 74° | 24km/h | 21664m | 6.7m/s | -49.8°C | 1.0% | 0hPa | 0V | 00:00:00 | 00:00:00 | 00:00:00 | |
| DL9RDZ-1 | 2026-09-02 00:10:39 | 64.15697 | -21.79143 | 88° | 31km/h | 21603m | 5.3m/s | -49.6°C | 1.0% | 0hPa | 0V | 00:00:00 | 00:00:00 | 00:00:00 | |
| DL9RDZ-1 | 2026-09-02 00:10:28 | 64.15683 | -21.79305 | 75° | 29km/h | 21543m | 4.5m/s | -49.4°C | 1.0% | 0hPa | 0V | 00:00:00 | 00:00:00 | 00:00:00 | |
| DL9RDZ-1 | 2026-09-02 00:10:17 | 64.15661 | -21.79452 | 70° | 29km/h | 21481m | 5.2m/s | -49.3°C | 1.0% | 0hPa | 0V | 00:00:00 | 00:00:00 | 00:00:00 | |
| DL9RDZ-1 | 2026-09-02 00:10:06 | 64.15630 | -21.79607 | 68° | 29km/h | 21418m | 4.8m/s | -49.0°C | 1.0% | 0hPa | 0V | 00:00:00 | 00:00:00 | 00:00:00 | |
| DL9RDZ-1 | 2026-09-02 00:09:53 | 64.15608 | -21.79823 | 76° | 27km/h | 21346m | 5.6m/s | -48.7°C | 0.9% | 0hPa | 0V | 00:00:00 | 00:00:00 | 00:00:00 | |
| DL9RDZ-1 | 2026-09-02 00:09:42 | 64.15578 | -21.80000 | 76° | 29km/h | 21284m | 5.3m/s | -48.6°C | 0.9% | 0hPa | 0V | 00:00:00 | 00:00:00 | 00:00:00 | |
| DL9RDZ-1 | 2026-09-02 00:09:33 | 64.15551 | -21.80179 | 68° | 27km/h | 21227m | 6.7m/s | -48.6°C | 0.9% | 0hPa | 0V | 00:00:00 | 00:00:00 | 00:00:00 | |
| DL9RDZ-1 | 2026-09-02 00:09:21 | 64.15527 | -21.80390 | 77° | 42km/h | 21168m | 6.4m/s | -48.7°C | 0.9% | 0hPa | 0V | 00:00:00 | 00:00:00 | 00:00:00 | |
| DL9RDZ-1 | 2026-09-02 00:09:08 | 64.15491 | -21.80681 | 72° | 46km/h | 21093m | 6.7m/s | -48.9°C | 1.0% | 0hPa | 0V | 00:00:00 | 00:00:00 | 00:00:00 | |
| DL9RDZ-1 | 2026-09-02 00:08:55 | 64.15449 | -21.80976 | 69° | 49km/h | 21021m | 5.2m/s | -48.9°C | 0.9% | 0hPa | 0V | 00:00:00 | 00:00:00 | 00:00:00 | |
| DL9RDZ-1 | 2026-09-02 00:08:44 | 64.15408 | -21.81215 | 70° | 44km/h | 20960m | 5.0m/s | -48.7°C | 0.9% | 0hPa | 0V | 00:00:00 | 00:00:00 | 00:00:00 | |
| DL9RDZ-1 | 2026-09-02 00:08:33 | 64.15367 | -21.81421 | 56° | 29km/h | 20900m | 5.6m/s | -48.9°C | 0.9% | 0hPa | 0V | 00:00:00 | 00:00:00 | 00:00:00 | |
| DL9RDZ-1 | 2026-09-02 00:08:23 | 64.15324 | -21.81588 | 50° | 29km/h | 20846m | 5.7m/s | -48.8°C | 1.0% | 0hPa | 0V | 00:00:00 | 00:00:00 | 00:00:00 | |
| DL9RDZ-1 | 2026-09-02 00:08:12 | 64.15281 | -21.81710 | 59° | 27km/h | 20785m | 4.8m/s | -48.8°C | 1.0% | 0hPa | 0V | 00:00:00 | 00:00:00 | 00:00:00 | |
| DL9RDZ-1 | 2026-09-02 00:08:01 | 64.15249 | -21.81859 | 62° | 24km/h | 20725m | 5.8m/s | -48.7°C | 1.0% | 0hPa | 0V | 00:00:00 | 00:00:00 | 00:00:00 | |
| DL9RDZ-1 | 2026-09-02 00:07:50 | 64.15234 | -21.81983 | 76° | 16km/h | 20666m | 4.6m/s | -48.6°C | 1.0% | 0hPa | 0V | 00:00:00 | 00:00:00 | 00:00:00 | |
| DL9RDZ-1 | 2026-09-02 00:07:40 | 64.15228 | -21.82096 | 86° | 15km/h | 20611m | 4.0m/s | -48.6°C | 1.0% | 0hPa | 0V | 00:00:00 | 00:00:00 | 00:00:00 | |
| DL9RDZ-1 | 2026-09-02 00:07:30 | 64.15243 | -21.82219 | 92° | 27km/h | 20551m | 4.8m/s | -48.6°C | 1.0% | 0hPa | 0V | 00:00:00 | 00:00:00 | 00:00:00 | |
| DL9RDZ-1 | 2026-09-02 00:07:19 | 64.15260 | -21.82396 | 98° | 27km/h | 20491m | 5.0m/s | -48.4°C | 1.0% | 0hPa | 0V | 00:00:00 | 00:00:00 | 00:00:00 | |
| DL9RDZ-1 | 2026-09-02 00:07:08 | 64.15266 | -21.82570 | 100° | 33km/h | 20438m | 5.6m/s | -48.1°C | 0.9% | 0hPa | 0V | 00:00:00 | 00:00:00 | 00:00:00 | |
| DL9RDZ-1 | 2026-09-02 00:06:59 | 64.15274 | -21.82776 | 86° | 40km/h | 20384m | 5.9m/s | -48.0°C | 0.9% | 0hPa | 0V | 00:00:00 | 00:00:00 | 00:00:00 | |
| DL9RDZ-1 | 2026-09-02 00:06:47 | 64.15275 | -21.82990 | 84° | 42km/h | 20325m | 6.4m/s | -47.9°C | 0.9% | 0hPa | 0V | 00:00:00 | 00:00:00 | 00:00:00 | |
| DL9RDZ-1 | 2026-09-02 00:06:36 | 64.15260 | -21.83240 | 84° | 31km/h | 20264m | 4.5m/s | -48.1°C | 0.9% | 0hPa | 0V | 00:00:00 | 00:00:00 | 00:00:00 | |
| DL9RDZ-1 | 2026-09-02 00:06:25 | 64.15229 | -21.83507 | 62° | 38km/h | 20204m | 5.7m/s | -47.9°C | 0.9% | 0hPa | 0V | 00:00:00 | 00:00:00 | 00:00:00 | |
| DL9RDZ-1 | 2026-09-02 00:06:14 | 64.15182 | -21.83722 | 59° | 40km/h | 20144m | 5.0m/s | -47.9°C | 0.9% | 0hPa | 0V | 00:00:00 | 00:00:00 | 00:00:00 | |
| DL9RDZ-1 | 2026-09-02 00:06:04 | 64.15130 | -21.83919 | 51° | 42km/h | 20083m | 5.2m/s | -47.9°C | 1.0% | 0hPa | 0V | 00:00:00 | 00:00:00 | 00:00:00 | |
| DL9RDZ-1 | 2026-09-02 00:05:11 | 64.14819 | -21.84832 | 37° | 44km/h | 19788m | 6.2m/s | -47.6°C | 1.0% | 0hPa | 0V | 00:00:00 | 00:00:00 | 00:00:00 | |
| DL9RDZ-1 | 2026-09-02 00:04:30 | 64.14551 | -21.85292 | 43° | 27km/h | 19568m | 5.6m/s | -47.8°C | 1.0% | 0hPa | 0V | 00:00:00 | 00:00:00 | 00:00:00 | |
| DL9RDZ-1 | 2026-09-02 00:04:19 | 64.14503 | -21.85409 | 46° | 20km/h | 19509m | 4.9m/s | -47.9°C | 1.0% | 0hPa | 0V | 00:00:00 | 00:00:00 | 00:00:00 | |
| DL9RDZ-1 | 2026-09-02 00:04:07 | 64.14444 | -21.85515 | 52° | 22km/h | 19434m | 5.6m/s | -47.5°C | 0.9% | 0hPa | 0V | 00:00:00 | 00:00:00 | 00:00:00 | |
| DL9RDZ-1 | 2026-09-02 00:03:59 | 64.14411 | -21.85616 | 51° | 27km/h | 19376m | 4.7m/s | -47.3°C | 0.9% | 0hPa | 0V | 00:00:00 | 00:00:00 | 00:00:00 | |
| DL9RDZ-1 | 2026-09-02 00:03:21 | 64.14236 | -21.86286 | 65° | 29km/h | 19132m | 4.6m/s | -47.4°C | 0.9% | 0hPa | 0V | 00:00:00 | 00:00:00 | 00:00:00 | |
| DL9RDZ-1 | 2026-09-02 00:03:13 | 64.14203 | -21.86407 | 59° | 26km/h | 19082m | 5.4m/s | -47.4°C | 1.0% | 0hPa | 0V | 00:00:00 | 00:00:00 | 00:00:00 | |
| DL9RDZ-1 | 2026-09-02 00:02:19 | 64.14109 | -21.86942 | 82° | 15km/h | 18838m | 5.8m/s | -47.1°C | 1.0% | 0hPa | 0V | 00:00:00 | 00:00:00 | 00:00:00 | |
| DL9RDZ-1 | 2026-09-02 00:02:09 | 64.14103 | -21.87103 | 90° | 24km/h | 18782m | 5.1m/s | -47.1°C | 1.0% | 0hPa | 0V | 00:00:00 | 00:00:00 | 00:00:00 | |
| DL9RDZ-1 | 2026-09-02 00:01:58 | 64.14097 | -21.87282 | 92° | 33km/h | 18728m | 5.3m/s | -47.2°C | 1.0% | 0hPa | 0V | 00:00:00 | 00:00:00 | 00:00:00 | |
| DL9RDZ-1 | 2026-09-02 00:01:36 | 64.14085 | -21.87702 | 100° | 27km/h | 18613m | 5.5m/s | -47.4°C | 1.0% | 0hPa | 0V | 00:00:00 | 00:00:00 | 00:00:00 | |
| DL9RDZ-1 | 2026-09-02 00:01:18 | 64.14097 | -21.87964 | 95° | 35km/h | 18539m | 4.0m/s | -47.2°C | 1.0% | 0hPa | 0V | 00:00:00 | 00:00:00 | 00:00:00 | |
| DL9RDZ-1 | 2026-09-02 00:01:00 | 64.14096 | -21.88229 | 86° | 35km/h | 18467m | 4.6m/s | -47.1°C | 1.0% | 0hPa | 0V | 00:00:00 | 00:00:00 | 00:00:00 | |
| DL9RDZ-1 | 2026-09-02 00:00:50 | 64.14083 | -21.88391 | 83° | 33km/h | 18415m | 4.3m/s | -47.1°C | 1.0% | 0hPa | 0V | 00:00:00 | 00:00:00 | 00:00:00 | |
| DL9RDZ-1 | 2026-09-02 00:00:41 | 64.14065 | -21.88577 | 77° | 29km/h | 18354m | 5.2m/s | -47.0°C | 1.0% | 0hPa | 0V | 00:00:00 | 00:00:00 | 00:00:00 | |
| DL9RDZ-1 | 2026-09-02 00:00:32 | 64.14049 | -21.88765 | 88° | 27km/h | 18293m | 5.1m/s | -46.9°C | 1.0% | 0hPa | 0V | 00:00:00 | 00:00:00 | 00:00:00 | |
| DL9RDZ-1 | 2026-09-02 00:00:22 | 64.14042 | -21.88906 | 89° | 20km/h | 18236m | 4.8m/s | -47.0°C | 1.0% | 0hPa | 0V | 00:00:00 | 00:00:00 | 00:00:00 | |
| DL9RDZ-1 | 2026-09-02 00:00:09 | 64.14042 | -21.89023 | 102° | 26km/h | 18189m | 5.0m/s | -47.0°C | 1.0% | 0hPa | 0V | 00:00:00 | 00:00:00 | 00:00:00 | |
| DL9RDZ-1 | 2026-09-01 23:59:33 | 64.14042 | -21.89700 | 98° | 46km/h | 18021m | 4.8m/s | -47.0°C | 1.0% | 0hPa | 0V | 00:00:00 | 00:00:00 | 00:00:00 | |
| DL9RDZ-1 | 2026-09-01 23:59:23 | 64.14037 | -21.89955 | 85° | 44km/h | 17971m | 5.0m/s | -47.1°C | 1.0% | 0hPa | 0V | 00:00:00 | 00:00:00 | 00:00:00 | |
| DL9RDZ-1 | 2026-09-01 23:59:04 | 64.13991 | -21.90506 | 76° | 46km/h | 17870m | 5.3m/s | -47.1°C | 1.0% | 0hPa | 0V | 00:00:00 | 00:00:00 | 00:00:00 | |
| DL9RDZ-1 | 2026-09-01 23:58:53 | 64.13956 | -21.90766 | 78° | 42km/h | 17821m | 4.9m/s | -47.0°C | 0.9% | 0hPa | 0V | 00:00:00 | 00:00:00 | 00:00:00 | |
| DL9RDZ-1 | 2026-09-01 23:58:29 | 64.13908 | -21.91264 | 79° | 35km/h | 17702m | 3.9m/s | -46.9°C | 1.0% | 0hPa | 0V | 00:00:00 | 00:00:00 | 00:00:00 | |
| DL9RDZ-1 | 2026-09-01 23:57:44 | 64.13872 | -21.92153 | 84° | 44km/h | 17472m | 3.9m/s | -47.0°C | 1.0% | 0hPa | 0V | 00:00:00 | 00:00:00 | 00:00:00 | |
| DL9RDZ-1 | 2026-09-01 23:57:34 | 64.13847 | -21.92411 | 82° | 42km/h | 17416m | 5.0m/s | -46.8°C | 1.0% | 0hPa | 0V | 00:00:00 | 00:00:00 | 00:00:00 | |
| DL9RDZ-1 | 2026-09-01 23:57:22 | 64.13813 | -21.92677 | 71° | 46km/h | 17358m | 5.1m/s | -47.0°C | 1.0% | 0hPa | 0V | 00:00:00 | 00:00:00 | 00:00:00 | |
| DL9RDZ-1 | 2026-09-01 23:57:12 | 64.13772 | -21.92906 | 59° | 42km/h | 17309m | 5.8m/s | -47.2°C | 1.0% | 0hPa | 0V | 00:00:00 | 00:00:00 | 00:00:00 | |
| DL9RDZ-1 | 2026-09-01 23:56:25 | 64.13579 | -21.93740 | 78° | 29km/h | 17075m | 5.3m/s | -47.2°C | 1.0% | 0hPa | 0V | 00:00:00 | 00:00:00 | 00:00:00 | |
| DL9RDZ-1 | 2026-09-01 23:56:15 | 64.13573 | -21.93926 | 86° | 37km/h | 17025m | 5.0m/s | -47.5°C | 1.0% | 0hPa | 0V | 00:00:00 | 00:00:00 | 00:00:00 | |
| DL9RDZ-1 | 2026-09-01 23:56:04 | 64.13551 | -21.94164 | 74° | 40km/h | 16968m | 5.9m/s | -47.5°C | 1.0% | 0hPa | 0V | 00:00:00 | 00:00:00 | 00:00:00 | |
| DL9RDZ-1 | 2026-09-01 23:55:54 | 64.13513 | -21.94387 | 61° | 42km/h | 16917m | 6.3m/s | -47.7°C | 1.0% | 0hPa | 0V | 00:00:00 | 00:00:00 | 00:00:00 | |
| DL9RDZ-1 | 2026-09-01 23:55:39 | 64.13430 | -21.94675 | 68° | 42km/h | 16840m | 5.1m/s | -48.3°C | 1.1% | 0hPa | 0V | 00:00:00 | 00:00:00 | 00:00:00 | |
| DL9RDZ-1 | 2026-09-01 23:55:26 | 64.13387 | -21.94931 | 71° | 44km/h | 16773m | 4.9m/s | -48.4°C | 1.1% | 0hPa | 0V | 00:00:00 | 00:00:00 | 00:00:00 | |
| DL9RDZ-1 | 2026-09-01 23:55:00 | 64.13297 | -21.95531 | 77° | 44km/h | 16638m | 4.8m/s | -48.1°C | 1.1% | 0hPa | 0V | 00:00:00 | 00:00:00 | 00:00:00 | |
| DL9RDZ-1 | 2026-09-01 23:53:20 | 64.12957 | -21.97677 | 75° | 42km/h | 16148m | 4.9m/s | -47.9°C | 1.1% | 0hPa | 0V | 00:00:00 | 00:00:00 | 00:00:00 | |
| DL9RDZ-1 | 2026-09-01 23:52:57 | 64.12885 | -21.98220 | 71° | 40km/h | 16031m | 3.6m/s | -47.8°C | 1.2% | 0hPa | 0V | 00:00:00 | 00:00:00 | 00:00:00 | |
| DL9RDZ-1 | 2026-09-01 23:49:56 | 64.12339 | -22.02320 | 84° | 42km/h | 15123m | 5.1m/s | -45.0°C | 1.1% | 0hPa | 0V | 00:00:00 | 00:00:00 | 00:00:00 | |
| DL9RDZ-1 | 2026-09-01 23:49:18 | 64.12310 | -22.03329 | 76° | 55km/h | 14941m | 3.9m/s | -46.0°C | 1.1% | 0hPa | 0V | 00:00:00 | 00:00:00 | 00:00:00 | |
| DL9RDZ-1 | 2026-09-01 23:49:04 | 64.12249 | -22.03760 | 70° | 55km/h | 14873m | 5.3m/s | -45.8°C | 1.1% | 0hPa | 0V | 00:00:00 | 00:00:00 | 00:00:00 | |
| DL9RDZ-1 | 2026-09-01 23:48:53 | 64.12200 | -22.04107 | 78° | 58km/h | 14820m | 3.9m/s | -46.1°C | 1.1% | 0hPa | 0V | 00:00:00 | 00:00:00 | 00:00:00 | |
| DL9RDZ-1 | 2026-09-01 23:48:41 | 64.12155 | -22.04474 | 78° | 51km/h | 14763m | 4.9m/s | -46.2°C | 1.1% | 0hPa | 0V | 00:00:00 | 00:00:00 | 00:00:00 | |
| DL9RDZ-1 | 2026-09-01 23:48:31 | 64.12121 | -22.04799 | 75° | 58km/h | 14712m | 4.2m/s | -46.4°C | 1.2% | 0hPa | 0V | 00:00:00 | 00:00:00 | 00:00:00 | |
| DL9RDZ-1 | 2026-09-01 23:48:18 | 64.12080 | -22.05199 | 79° | 62km/h | 14657m | 5.0m/s | -46.3°C | 1.2% | 0hPa | 0V | 00:00:00 | 00:00:00 | 00:00:00 | |
| DL9RDZ-1 | 2026-09-01 23:48:08 | 64.12042 | -22.05533 | 75° | 60km/h | 14611m | 4.8m/s | -45.9°C | 1.1% | 0hPa | 0V | 00:00:00 | 00:00:00 | 00:00:00 | |
| DL9RDZ-1 | 2026-09-01 23:47:54 | 64.11975 | -22.05989 | 75° | 57km/h | 14545m | 4.4m/s | -45.6°C | 1.1% | 0hPa | 0V | 00:00:00 | 00:00:00 | 00:00:00 | |
| DL9RDZ-1 | 2026-09-01 23:47:33 | 64.11861 | -22.06640 | 68° | 58km/h | 14444m | 4.1m/s | -46.4°C | 1.2% | 0hPa | 0V | 00:00:00 | 00:00:00 | 00:00:00 | |
| DL9RDZ-1 | 2026-09-01 23:47:22 | 64.11806 | -22.06956 | 74° | 55km/h | 14391m | 4.9m/s | -46.3°C | 1.2% | 0hPa | 0V | 00:00:00 | 00:00:00 | 00:00:00 | |
| DL9RDZ-1 | 2026-09-01 23:47:15 | 64.11762 | -22.07273 | 74° | 49km/h | 14341m | 4.2m/s | -46.4°C | 1.2% | 0hPa | 0V | 00:00:00 | 00:00:00 | 00:00:00 | |
| DL9RDZ-1 | 2026-09-01 23:46:16 | 64.11544 | -22.08787 | 74° | 57km/h | 14080m | 5.2m/s | -47.3°C | 1.2% | 0hPa | 0V | 00:00:00 | 00:00:00 | 00:00:00 | |
| DL9RDZ-1 | 2026-09-01 23:46:05 | 64.11499 | -22.09068 | 65° | 44km/h | 14030m | 4.8m/s | -47.4°C | 1.2% | 0hPa | 0V | 00:00:00 | 00:00:00 | 00:00:00 | |
| DL9RDZ-1 | 2026-09-01 23:45:27 | 64.11356 | -22.10029 | 83° | 46km/h | 13855m | 4.8m/s | -47.2°C | 1.3% | 0hPa | 0V | 00:00:00 | 00:00:00 | 00:00:00 | |
| DL9RDZ-1 | 2026-09-01 23:45:12 | 64.11304 | -22.10415 | 72° | 46km/h | 13779m | 5.6m/s | -47.2°C | 1.3% | 0hPa | 0V | 00:00:00 | 00:00:00 | 00:00:00 | |
| DL9RDZ-1 | 2026-09-01 23:45:00 | 64.11262 | -22.10660 | 71° | 42km/h | 13730m | 3.7m/s | -47.2°C | 1.3% | 0hPa | 0V | 00:00:00 | 00:00:00 | 00:00:00 | |
| DL9RDZ-1 | 2026-09-01 23:44:45 | 64.11210 | -22.11055 | 85° | 47km/h | 13659m | 4.5m/s | -47.2°C | 1.3% | 0hPa | 0V | 00:00:00 | 00:00:00 | 00:00:00 | |
| DL9RDZ-1 | 2026-09-01 23:44:16 | 64.11154 | -22.11836 | 77° | 53km/h | 13528m | 5.3m/s | -47.3°C | 1.3% | 0hPa | 0V | 00:00:00 | 00:00:00 | 00:00:00 | |
| DL9RDZ-1 | 2026-09-01 23:43:59 | 64.11120 | -22.12329 | 77° | 51km/h | 13453m | 4.1m/s | -47.6°C | 1.4% | 0hPa | 0V | 00:00:00 | 00:00:00 | 00:00:00 | |
| DL9RDZ-1 | 2026-09-01 23:42:49 | 64.10859 | -22.14180 | 75° | 46km/h | 13131m | 4.2m/s | -47.1°C | 1.4% | 0hPa | 0V | 00:00:00 | 00:00:00 | 00:00:00 | |
| DL9RDZ-1 | 2026-09-01 23:42:28 | 64.10795 | -22.14734 | 77° | 49km/h | 13031m | 4.8m/s | -46.9°C | 1.3% | 0hPa | 0V | 00:00:00 | 00:00:00 | 00:00:00 | |
| DL9RDZ-1 | 2026-09-01 23:42:17 | 64.10770 | -22.15028 | 79° | 51km/h | 12981m | 5.1m/s | -47.1°C | 1.4% | 0hPa | 0V | 00:00:00 | 00:00:00 | 00:00:00 | |
| DL9RDZ-1 | 2026-09-01 23:42:07 | 64.10750 | -22.15338 | 80° | 53km/h | 12932m | 5.2m/s | -47.4°C | 1.4% | 0hPa | 0V | 00:00:00 | 00:00:00 | 00:00:00 | |
| DL9RDZ-1 | 2026-09-01 23:41:53 | 64.10712 | -22.15712 | 73° | 53km/h | 12871m | 3.9m/s | -47.4°C | 1.4% | 0hPa | 0V | 00:00:00 | 00:00:00 | 00:00:00 | |
| DL9RDZ-1 | 2026-09-01 23:41:42 | 64.10677 | -22.16021 | 70° | 46km/h | 12821m | 4.8m/s | -47.5°C | 1.4% | 0hPa | 0V | 00:00:00 | 00:00:00 | 00:00:00 | |
| DL9RDZ-1 | 2026-09-01 23:41:31 | 64.10639 | -22.16310 | 73° | 42km/h | 12768m | 5.4m/s | -47.3°C | 1.4% | 0hPa | 0V | 00:00:00 | 00:00:00 | 00:00:00 | |
| DL9RDZ-1 | 2026-09-01 23:41:21 | 64.10612 | -22.16587 | 81° | 47km/h | 12713m | 4.4m/s | -47.4°C | 1.4% | 0hPa | 0V | 00:00:00 | 00:00:00 | 00:00:00 | |
| DL9RDZ-1 | 2026-09-01 23:41:07 | 64.10576 | -22.16920 | 80° | 47km/h | 12654m | 4.1m/s | -47.3°C | 1.4% | 0hPa | 0V | 00:00:00 | 00:00:00 | 00:00:00 | |
| DL9RDZ-1 | 2026-09-01 23:40:56 | 64.10548 | -22.17228 | 73° | 42km/h | 12598m | 4.5m/s | -47.7°C | 1.5% | 0hPa | 0V | 00:00:00 | 00:00:00 | 00:00:00 | |
| DL9RDZ-1 | 2026-09-01 23:40:35 | 64.10471 | -22.17734 | 72° | 47km/h | 12505m | 5.1m/s | -47.6°C | 1.5% | 0hPa | 0V | 00:00:00 | 00:00:00 | 00:00:00 | |
| DL9RDZ-1 | 2026-09-01 23:40:24 | 64.10441 | -22.18003 | 76° | 47km/h | 12452m | 4.0m/s | -47.5°C | 1.5% | 0hPa | 0V | 00:00:00 | 00:00:00 | 00:00:00 | |
| DL9RDZ-1 | 2026-09-01 23:40:13 | 64.10408 | -22.18296 | 80° | 46km/h | 12400m | 5.2m/s | -47.6°C | 1.5% | 0hPa | 0V | 00:00:00 | 00:00:00 | 00:00:00 | |
| DL9RDZ-1 | 2026-09-01 23:40:03 | 64.10390 | -22.18599 | 87° | 46km/h | 12350m | 4.7m/s | -47.5°C | 1.5% | 0hPa | 0V | 00:00:00 | 00:00:00 | 00:00:00 | |
| DL9RDZ-1 | 2026-09-01 23:39:52 | 64.10359 | -22.18905 | 81° | 49km/h | 12297m | 4.0m/s | -47.6°C | 1.5% | 0hPa | 0V | 00:00:00 | 00:00:00 | 00:00:00 | |
| DL9RDZ-1 | 2026-09-01 23:39:41 | 64.10332 | -22.19201 | 72° | 53km/h | 12246m | 3.8m/s | -47.8°C | 1.6% | 0hPa | 0V | 00:00:00 | 00:00:00 | 00:00:00 | |
| DL9RDZ-1 | 2026-09-01 23:39:31 | 64.10288 | -22.19481 | 73° | 53km/h | 12201m | 4.9m/s | -47.8°C | 1.6% | 0hPa | 0V | 00:00:00 | 00:00:00 | 00:00:00 | |
| DL9RDZ-1 | 2026-09-01 23:39:20 | 64.10238 | -22.19759 | 66° | 46km/h | 12151m | 5.0m/s | -48.0°C | 1.7% | 0hPa | 0V | 00:00:00 | 00:00:00 | 00:00:00 | |
| DL9RDZ-1 | 2026-09-01 23:39:09 | 64.10202 | -22.20014 | 74° | 51km/h | 12107m | 4.5m/s | -47.8°C | 1.7% | 0hPa | 0V | 00:00:00 | 00:00:00 | 00:00:00 | |
| DL9RDZ-1 | 2026-09-01 23:38:58 | 64.10154 | -22.20328 | 73° | 55km/h | 12055m | 3.5m/s | -47.8°C | 1.7% | 0hPa | 0V | 00:00:00 | 00:00:00 | 00:00:00 | |
| DL9RDZ-1 | 2026-09-01 23:38:47 | 64.10120 | -22.20660 | 81° | 57km/h | 12003m | 4.0m/s | -48.2°C | 1.8% | 0hPa | 0V | 00:00:00 | 00:00:00 | 00:00:00 | |
| DL9RDZ-1 | 2026-09-01 23:38:35 | 64.10092 | -22.21032 | 77° | 57km/h | 11949m | 3.9m/s | -47.9°C | 1.8% | 0hPa | 0V | 00:00:00 | 00:00:00 | 00:00:00 | |
| DL9RDZ-1 | 2026-09-01 23:38:10 | 64.10027 | -22.21748 | 74° | 53km/h | 11834m | 3.7m/s | -48.1°C | 2.1% | 0hPa | 0V | 00:00:00 | 00:00:00 | 00:00:00 | |
| DL9RDZ-1 | 2026-09-01 23:38:00 | 64.10001 | -22.22036 | 82° | 55km/h | 11788m | 4.4m/s | -48.1°C | 2.3% | 0hPa | 0V | 00:00:00 | 00:00:00 | 00:00:00 | |
| DL9RDZ-1 | 2026-09-01 23:37:49 | 64.09974 | -22.22387 | 81° | 58km/h | 11735m | 5.2m/s | -48.2°C | 2.3% | 0hPa | 0V | 00:00:00 | 00:00:00 | 00:00:00 | |
| DL9RDZ-1 | 2026-09-01 23:37:39 | 64.09941 | -22.22726 | 80° | 62km/h | 11688m | 4.1m/s | -48.5°C | 2.4% | 0hPa | 0V | 00:00:00 | 00:00:00 | 00:00:00 | |
| DL9RDZ-1 | 2026-09-01 23:37:29 | 64.09902 | -22.23086 | 73° | 66km/h | 11642m | 5.6m/s | -49.0°C | 2.5% | 0hPa | 0V | 00:00:00 | 00:00:00 | 00:00:00 | |
| DL9RDZ-1 | 2026-09-01 23:37:18 | 64.09834 | -22.23456 | 70° | 60km/h | 11589m | 4.6m/s | -49.3°C | 3.0% | 0hPa | 0V | 00:00:00 | 00:00:00 | 00:00:00 | |
| DL9RDZ-1 | 2026-09-01 23:37:08 | 64.09778 | -22.23780 | 68° | 58km/h | 11541m | 3.9m/s | -49.7°C | 3.4% | 0hPa | 0V | 00:00:00 | 00:00:00 | 00:00:00 | |
| DL9RDZ-1 | 2026-09-01 23:36:58 | 64.09719 | -22.24135 | 76° | 58km/h | 11492m | 4.0m/s | -49.6°C | 3.7% | 0hPa | 0V | 00:00:00 | 00:00:00 | 00:00:00 | |
| DL9RDZ-1 | 2026-09-01 23:36:48 | 64.09676 | -22.24469 | 77° | 60km/h | 11447m | 4.0m/s | -50.2°C | 3.9% | 0hPa | 0V | 00:00:00 | 00:00:00 | 00:00:00 | |
| DL9RDZ-1 | 2026-09-01 23:36:37 | 64.09646 | -22.24807 | 78° | 60km/h | 11402m | 3.9m/s | -50.3°C | 3.9% | 0hPa | 0V | 00:00:00 | 00:00:00 | 00:00:00 | |
| DL9RDZ-1 | 2026-09-01 23:36:27 | 64.09605 | -22.25142 | 78° | 58km/h | 11355m | 4.4m/s | -50.7°C | 4.0% | 0hPa | 0V | 00:00:00 | 00:00:00 | 00:00:00 | |
| DL9RDZ-1 | 2026-09-01 23:36:15 | 64.09571 | -22.25507 | 76° | 60km/h | 11308m | 5.8m/s | -51.2°C | 4.7% | 0hPa | 0V | 00:00:00 | 00:00:00 | 00:00:00 | |
| DL9RDZ-1 | 2026-09-01 23:36:04 | 64.09517 | -22.25867 | 68° | 64km/h | 11258m | 4.2m/s | -51.3°C | 5.5% | 0hPa | 0V | 00:00:00 | 00:00:00 | 00:00:00 | |
| DL9RDZ-1 | 2026-09-01 23:35:54 | 64.09446 | -22.26253 | 73° | 66km/h | 11209m | 3.9m/s | -51.5°C | 6.7% | 0hPa | 0V | 00:00:00 | 00:00:00 | 00:00:00 | |
| DL9RDZ-1 | 2026-09-01 23:35:43 | 64.09392 | -22.26618 | 72° | 71km/h | 11168m | 4.2m/s | -52.0°C | 8.4% | 0hPa | 0V | 00:00:00 | 00:00:00 | 00:00:00 | |
| DL9RDZ-1 | 2026-09-01 23:35:32 | 64.09339 | -22.27029 | 71° | 69km/h | 11119m | 4.2m/s | -52.4°C | 9.7% | 0hPa | 0V | 00:00:00 | 00:00:00 | 00:00:00 | |
| DL9RDZ-1 | 2026-09-01 23:35:23 | 64.09283 | -22.27396 | 70° | 64km/h | 11076m | 3.6m/s | -52.7°C | 11.6% | 0hPa | 0V | 00:00:00 | 00:00:00 | 00:00:00 | |
| DL9RDZ-1 | 2026-09-01 23:35:12 | 64.09206 | -22.27799 | 68° | 75km/h | 11026m | 3.7m/s | -53.7°C | 14.8% | 0hPa | 0V | 00:00:00 | 00:00:00 | 00:00:00 | |
| DL9RDZ-1 | 2026-09-01 23:35:00 | 64.09119 | -22.28249 | 66° | 78km/h | 10977m | 3.0m/s | -54.7°C | 17.6% | 0hPa | 0V | 00:00:00 | 00:00:00 | 00:00:00 | |
| DL9RDZ-1 | 2026-09-01 23:34:50 | 64.09032 | -22.28630 | 62° | 73km/h | 10932m | 5.7m/s | -54.7°C | 16.7% | 0hPa | 0V | 00:00:00 | 00:00:00 | 00:00:00 | |
| DL9RDZ-1 | 2026-09-01 23:34:39 | 64.08931 | -22.29048 | 62° | 75km/h | 10883m | 5.6m/s | -55.2°C | 19.5% | 0hPa | 0V | 00:00:00 | 00:00:00 | 00:00:00 | |
| DL9RDZ-1 | 2026-09-01 23:34:29 | 64.08842 | -22.29459 | 64° | 86km/h | 10837m | 3.1m/s | -56.0°C | 21.5% | 0hPa | 0V | 00:00:00 | 00:00:00 | 00:00:00 | |
| DL9RDZ-1 | 2026-09-01 23:34:18 | 64.08741 | -22.29921 | 65° | 80km/h | 10788m | 5.3m/s | -55.9°C | 21.1% | 0hPa | 0V | 00:00:00 | 00:00:00 | 00:00:00 | |
| DL9RDZ-1 | 2026-09-01 23:34:08 | 64.08648 | -22.30344 | 67° | 82km/h | 10745m | 4.5m/s | -55.7°C | 21.8% | 0hPa | 0V | 00:00:00 | 00:00:00 | 00:00:00 | |
| DL9RDZ-1 | 2026-09-01 23:33:58 | 64.08566 | -22.30784 | 69° | 82km/h | 10701m | 3.7m/s | -55.5°C | 22.5% | 0hPa | 0V | 00:00:00 | 00:00:00 | 00:00:00 | |
| DL9RDZ-1 | 2026-09-01 23:33:47 | 64.08476 | -22.31284 | 69° | 88km/h | 10651m | 6.3m/s | -55.5°C | 23.6% | 0hPa | 0V | 00:00:00 | 00:00:00 | 00:00:00 | |
| DL9RDZ-1 | 2026-09-01 23:33:37 | 64.08397 | -22.31786 | 72° | 91km/h | 10603m | 3.9m/s | -55.9°C | 25.5% | 0hPa | 0V | 00:00:00 | 00:00:00 | 00:00:00 | |
| DL9RDZ-1 | 2026-09-01 23:33:27 | 64.08310 | -22.32336 | 71° | 97km/h | 10553m | 4.3m/s | -56.4°C | 28.1% | 0hPa | 0V | 00:00:00 | 00:00:00 | 00:00:00 | |
| DL9RDZ-1 | 2026-09-01 23:33:16 | 64.08227 | -22.32836 | 68° | 88km/h | 10502m | 4.7m/s | -56.5°C | 30.6% | 0hPa | 0V | 00:00:00 | 00:00:00 | 00:00:00 | |
| DL9RDZ-1 | 2026-09-01 23:33:05 | 64.08138 | -22.33326 | 70° | 86km/h | 10450m | 4.6m/s | -56.2°C | 32.6% | 0hPa | 0V | 00:00:00 | 00:00:00 | 00:00:00 | |
| DL9RDZ-1 | 2026-09-01 23:32:54 | 64.08054 | -22.33842 | 66° | 75km/h | 10385m | 4.7m/s | -56.1°C | 36.8% | 0hPa | 0V | 00:00:00 | 00:00:00 | 00:00:00 | |
| DL9RDZ-1 | 2026-09-01 23:32:43 | 64.07944 | -22.34398 | 65° | 100km/h | 10316m | 5.4m/s | -56.3°C | 42.3% | 0hPa | 0V | 00:00:00 | 00:00:00 | 00:00:00 | |
| DL9RDZ-1 | 2026-09-01 23:32:32 | 64.07825 | -22.34979 | 65° | 104km/h | 10270m | 4.2m/s | -56.3°C | 45.7% | 0hPa | 0V | 00:00:00 | 00:00:00 | 00:00:00 | |
| DL9RDZ-1 | 2026-09-01 23:32:21 | 64.07703 | -22.35563 | 68° | 99km/h | 10223m | 5.7m/s | -56.2°C | 51.7% | 0hPa | 0V | 00:00:00 | 00:00:00 | 00:00:00 | |
| DL9RDZ-1 | 2026-09-01 23:32:11 | 64.07594 | -22.36087 | 63° | 97km/h | 10173m | 5.6m/s | -56.8°C | 63.9% | 0hPa | 0V | 00:00:00 | 00:00:00 | 00:00:00 | |
| DL9RDZ-1 | 2026-09-01 23:32:01 | 64.07480 | -22.36608 | 65° | 102km/h | 10121m | 6.1m/s | -57.6°C | 74.2% | 0hPa | 0V | 00:00:00 | 00:00:00 | 00:00:00 | |
| DL9RDZ-1 | 2026-09-01 23:31:51 | 64.07359 | -22.37077 | 64° | 86km/h | 10063m | 6.6m/s | -57.7°C | 68.8% | 0hPa | 0V | 00:00:00 | 00:00:00 | 00:00:00 | |
| DL9RDZ-1 | 2026-09-01 23:31:40 | 64.07245 | -22.37545 | 61° | 84km/h | 10012m | 4.9m/s | -57.7°C | 71.0% | 0hPa | 0V | 00:00:00 | 00:00:00 | 00:00:00 | |
| DL9RDZ-1 | 2026-09-01 23:31:29 | 64.07135 | -22.38008 | 59° | 82km/h | 9961m | 5.7m/s | -57.7°C | 71.8% | 0hPa | 0V | 00:00:00 | 00:00:00 | 00:00:00 | |
| DL9RDZ-1 | 2026-09-01 23:31:18 | 64.07014 | -22.38420 | 56° | 77km/h | 9909m | 3.4m/s | -57.4°C | 70.6% | 0hPa | 0V | 00:00:00 | 00:00:00 | 00:00:00 | |
| DL9RDZ-1 | 2026-09-01 23:31:07 | 64.06904 | -22.38831 | 62° | 77km/h | 9861m | 3.6m/s | -56.9°C | 70.1% | 0hPa | 0V | 00:00:00 | 00:00:00 | 00:00:00 | |
| DL9RDZ-1 | 2026-09-01 23:30:57 | 64.06806 | -22.39212 | 61° | 73km/h | 9813m | 3.8m/s | -56.4°C | 66.3% | 0hPa | 0V | 00:00:00 | 00:00:00 | 00:00:00 | |
| DL9RDZ-1 | 2026-09-01 23:30:46 | 64.06697 | -22.39622 | 60° | 82km/h | 9760m | 4.7m/s | -56.0°C | 64.3% | 0hPa | 0V | 00:00:00 | 00:00:00 | 00:00:00 | |
| DL9RDZ-1 | 2026-09-01 23:30:24 | 64.06480 | -22.40467 | 58° | 77km/h | 9665m | 4.9m/s | -55.8°C | 69.3% | 0hPa | 0V | 00:00:00 | 00:00:00 | 00:00:00 | |
| DL9RDZ-1 | 2026-09-01 23:30:16 | 64.06382 | -22.40846 | 61° | 77km/h | 9623m | 4.9m/s | -55.5°C | 70.2% | 0hPa | 0V | 00:00:00 | 00:00:00 | 00:00:00 | |
| DL9RDZ-1 | 2026-09-01 23:30:03 | 64.06281 | -22.41262 | 64° | 73km/h | 9573m | 2.7m/s | -55.1°C | 68.7% | 0hPa | 0V | 00:00:00 | 00:00:00 | 00:00:00 | |
| DL9RDZ-1 | 2026-09-01 23:29:50 | 64.06158 | -22.41757 | 65° | 84km/h | 9508m | 4.1m/s | -54.6°C | 75.1% | 0hPa | 0V | 00:00:00 | 00:00:00 | 00:00:00 | |
| DL9RDZ-1 | 2026-09-01 23:29:40 | 64.06073 | -22.42129 | 63° | 69km/h | 9448m | 6.3m/s | -54.2°C | 76.6% | 0hPa | 0V | 00:00:00 | 00:00:00 | 00:00:00 | |
| DL9RDZ-1 | 2026-09-01 23:29:29 | 64.05971 | -22.42480 | 58° | 71km/h | 9383m | 2.8m/s | -53.6°C | 73.5% | 0hPa | 0V | 00:00:00 | 00:00:00 | 00:00:00 | |
| DL9RDZ-1 | 2026-09-01 23:29:18 | 64.05875 | -22.42856 | 59° | 62km/h | 9332m | 4.4m/s | -53.1°C | 72.6% | 0hPa | 0V | 00:00:00 | 00:00:00 | 00:00:00 | |
| DL9RDZ-1 | 2026-09-01 23:29:08 | 64.05797 | -22.43179 | 60° | 66km/h | 9287m | 3.2m/s | -52.7°C | 72.2% | 0hPa | 0V | 00:00:00 | 00:00:00 | 00:00:00 | |
| DL9RDZ-1 | 2026-09-01 23:28:57 | 64.05705 | -22.43527 | 64° | 62km/h | 9236m | 3.4m/s | -52.2°C | 76.0% | 0hPa | 0V | 00:00:00 | 00:00:00 | 00:00:00 | |
| DL9RDZ-1 | 2026-09-01 23:28:47 | 64.05623 | -22.43850 | 59° | 62km/h | 9177m | 4.2m/s | -51.7°C | 72.8% | 0hPa | 0V | 00:00:00 | 00:00:00 | 00:00:00 | |
| DL9RDZ-1 | 2026-09-01 23:28:36 | 64.05535 | -22.44202 | 58° | 64km/h | 9120m | 5.0m/s | -51.2°C | 77.2% | 0hPa | 0V | 00:00:00 | 00:00:00 | 00:00:00 | |
| DL9RDZ-1 | 2026-09-01 23:28:26 | 64.05452 | -22.44501 | 61° | 64km/h | 9076m | 5.9m/s | -50.8°C | 77.3% | 0hPa | 0V | 00:00:00 | 00:00:00 | 00:00:00 | |
| DL9RDZ-1 | 2026-09-01 23:27:55 | 64.05193 | -22.45481 | 63° | 66km/h | 8942m | 3.2m/s | -49.5°C | 76.7% | 0hPa | 0V | 00:00:00 | 00:00:00 | 00:00:00 | |
| DL9RDZ-1 | 2026-09-01 23:27:45 | 64.05109 | -22.45800 | 62° | 66km/h | 8898m | 3.2m/s | -49.1°C | 76.2% | 0hPa | 0V | 00:00:00 | 00:00:00 | 00:00:00 | |
| DL9RDZ-1 | 2026-09-01 23:27:34 | 64.05022 | -22.46148 | 61° | 64km/h | 8848m | 5.1m/s | -48.6°C | 76.6% | 0hPa | 0V | 00:00:00 | 00:00:00 | 00:00:00 | |
| DL9RDZ-1 | 2026-09-01 23:27:23 | 64.04932 | -22.46511 | 61° | 60km/h | 8800m | 5.8m/s | -48.2°C | 74.1% | 0hPa | 0V | 00:00:00 | 00:00:00 | 00:00:00 | |
| DL9RDZ-1 | 2026-09-01 23:27:13 | 64.04849 | -22.46831 | 58° | 68km/h | 8752m | 5.1m/s | -47.7°C | 73.5% | 0hPa | 0V | 00:00:00 | 00:00:00 | 00:00:00 | |
| DL9RDZ-1 | 2026-09-01 23:27:02 | 64.04755 | -22.47174 | 57° | 66km/h | 8706m | 4.5m/s | -47.3°C | 73.0% | 0hPa | 0V | 00:00:00 | 00:00:00 | 00:00:00 | |
| DL9RDZ-1 | 2026-09-01 23:26:52 | 64.04669 | -22.47493 | 59° | 64km/h | 8661m | 5.2m/s | -46.9°C | 75.7% | 0hPa | 0V | 00:00:00 | 00:00:00 | 00:00:00 | |
| DL9RDZ-1 | 2026-09-01 23:26:42 | 64.04577 | -22.47834 | 56° | 60km/h | 8613m | 5.7m/s | -46.4°C | 77.5% | 0hPa | 0V | 00:00:00 | 00:00:00 | 00:00:00 | |
| DL9RDZ-1 | 2026-09-01 23:26:30 | 64.04484 | -22.48173 | 58° | 60km/h | 8561m | 4.7m/s | -45.9°C | 79.6% | 0hPa | 0V | 00:00:00 | 00:00:00 | 00:00:00 | |
| DL9RDZ-1 | 2026-09-01 23:26:19 | 64.04397 | -22.48496 | 61° | 64km/h | 8515m | 3.4m/s | -45.5°C | 79.6% | 0hPa | 0V | 00:00:00 | 00:00:00 | 00:00:00 | |
| DL9RDZ-1 | 2026-09-01 23:26:08 | 64.04298 | -22.48819 | 56° | 64km/h | 8461m | 4.1m/s | -45.0°C | 76.0% | 0hPa | 0V | 00:00:00 | 00:00:00 | 00:00:00 | |
| DL9RDZ-1 | 2026-09-01 23:25:58 | 64.04210 | -22.49117 | 52° | 64km/h | 8417m | 6.1m/s | -44.5°C | 76.0% | 0hPa | 0V | 00:00:00 | 00:00:00 | 00:00:00 | |
| DL9RDZ-1 | 2026-09-01 23:25:47 | 64.04109 | -22.49437 | 53° | 60km/h | 8362m | 9.1m/s | -44.0°C | 76.0% | 0hPa | 0V | 00:00:00 | 00:00:00 | 00:00:00 | |
| DL9RDZ-1 | 2026-09-01 23:25:36 | 64.04007 | -22.49751 | 55° | 60km/h | 8291m | 3.8m/s | -43.5°C | 75.7% | 0hPa | 0V | 00:00:00 | 00:00:00 | 00:00:00 | |
| DL9RDZ-1 | 2026-09-01 23:25:25 | 64.03909 | -22.50082 | 60° | 64km/h | 8231m | 6.7m/s | -42.9°C | 73.1% | 0hPa | 0V | 00:00:00 | 00:00:00 | 00:00:00 | |
| DL9RDZ-1 | 2026-09-01 23:25:12 | 64.03805 | -22.50483 | 61° | 62km/h | 8157m | 3.4m/s | -42.3°C | 73.1% | 0hPa | 0V | 00:00:00 | 00:00:00 | 00:00:00 | |
| DL9RDZ-1 | 2026-09-01 23:24:59 | 64.03697 | -22.50897 | 57° | 71km/h | 8094m | 4.8m/s | -41.7°C | 71.7% | 0hPa | 0V | 00:00:00 | 00:00:00 | 00:00:00 | |
| DL9RDZ-1 | 2026-09-01 23:24:48 | 64.03609 | -22.51231 | 61° | 57km/h | 8031m | 3.9m/s | -41.2°C | 69.7% | 0hPa | 0V | 00:00:00 | 00:00:00 | 00:00:00 | |
| DL9RDZ-1 | 2026-09-01 23:24:37 | 64.03521 | -22.51547 | 63° | 58km/h | 7980m | 3.8m/s | -40.7°C | 70.4% | 0hPa | 0V | 00:00:00 | 00:00:00 | 00:00:00 | |
| DL9RDZ-1 | 2026-09-01 23:24:26 | 64.03433 | -22.51868 | 56° | 55km/h | 7929m | 6.0m/s | -40.2°C | 69.9% | 0hPa | 0V | 00:00:00 | 00:00:00 | 00:00:00 | |
| DL9RDZ-1 | 2026-09-01 23:24:16 | 64.03344 | -22.52176 | 55° | 64km/h | 7870m | 6.7m/s | -39.7°C | 70.2% | 0hPa | 0V | 00:00:00 | 00:00:00 | 00:00:00 | |
| DL9RDZ-1 | 2026-09-01 23:24:04 | 64.03250 | -22.52500 | 65° | 58km/h | 7802m | 4.9m/s | -39.2°C | 68.9% | 0hPa | 0V | 00:00:00 | 00:00:00 | 00:00:00 | |
| DL9RDZ-1 | 2026-09-01 23:23:54 | 64.03173 | -22.52815 | 65° | 66km/h | 7750m | 5.7m/s | -38.7°C | 71.5% | 0hPa | 0V | 00:00:00 | 00:00:00 | 00:00:00 | |
| DL9RDZ-1 | 2026-09-01 23:23:44 | 64.03091 | -22.53121 | 57° | 66km/h | 7685m | 7.1m/s | -38.2°C | 72.1% | 0hPa | 0V | 00:00:00 | 00:00:00 | 00:00:00 | |
| DL9RDZ-1 | 2026-09-01 23:23:33 | 64.02998 | -22.53423 | 47° | 62km/h | 7618m | 5.5m/s | -37.7°C | 72.4% | 0hPa | 0V | 00:00:00 | 00:00:00 | 00:00:00 | |
| DL9RDZ-1 | 2026-09-01 23:23:22 | 64.02892 | -22.53740 | 51° | 60km/h | 7556m | 4.5m/s | -37.3°C | 72.1% | 0hPa | 0V | 00:00:00 | 00:00:00 | 00:00:00 | |
| DL9RDZ-1 | 2026-09-01 23:23:12 | 64.02793 | -22.54011 | 50° | 68km/h | 7504m | 5.4m/s | -37.0°C | 71.4% | 0hPa | 0V | 00:00:00 | 00:00:00 | 00:00:00 | |
| DL9RDZ-1 | 2026-09-01 23:23:02 | 64.02675 | -22.54300 | 47° | 66km/h | 7434m | 7.6m/s | -36.5°C | 70.2% | 0hPa | 0V | 00:00:00 | 00:00:00 | 00:00:00 | |
| DL9RDZ-1 | 2026-09-01 23:22:50 | 64.02562 | -22.54562 | 53° | 55km/h | 7369m | 6.8m/s | -35.9°C | 68.8% | 0hPa | 0V | 00:00:00 | 00:00:00 | 00:00:00 | |
| DL9RDZ-1 | 2026-09-01 23:22:40 | 64.02462 | -22.54773 | 43° | 53km/h | 7305m | 6.4m/s | -35.4°C | 66.6% | 0hPa | 0V | 00:00:00 | 00:00:00 | 00:00:00 | |
| DL9RDZ-1 | 2026-09-01 23:22:30 | 64.02364 | -22.54983 | 44° | 51km/h | 7255m | 4.5m/s | -35.3°C | 67.7% | 0hPa | 0V | 00:00:00 | 00:00:00 | 00:00:00 | |
| DL9RDZ-1 | 2026-09-01 23:22:19 | 64.02267 | -22.55199 | 46° | 47km/h | 7205m | 4.3m/s | -34.9°C | 70.0% | 0hPa | 0V | 00:00:00 | 00:00:00 | 00:00:00 | |
| DL9RDZ-1 | 2026-09-01 23:22:09 | 64.02171 | -22.55381 | 41° | 42km/h | 7148m | 7.7m/s | -34.7°C | 71.1% | 0hPa | 0V | 00:00:00 | 00:00:00 | 00:00:00 | |
| DL9RDZ-1 | 2026-09-01 23:21:57 | 64.02084 | -22.55563 | 37° | 47km/h | 7076m | 8.2m/s | -34.2°C | 70.6% | 0hPa | 0V | 00:00:00 | 00:00:00 | 00:00:00 | |
| DL9RDZ-1 | 2026-09-01 23:21:46 | 64.01990 | -22.55773 | 48° | 46km/h | 7014m | 7.3m/s | -34.0°C | 63.9% | 0hPa | 0V | 00:00:00 | 00:00:00 | 00:00:00 | |
| DL9RDZ-1 | 2026-09-01 23:21:35 | 64.01886 | -22.55986 | 36° | 51km/h | 6943m | 4.9m/s | -33.5°C | 72.1% | 0hPa | 0V | 00:00:00 | 00:00:00 | 00:00:00 | |
| DL9RDZ-1 | 2026-09-01 23:21:24 | 64.01784 | -22.56162 | 41° | 37km/h | 6877m | 6.5m/s | -33.1°C | 72.0% | 0hPa | 0V | 00:00:00 | 00:00:00 | 00:00:00 | |
| DL9RDZ-1 | 2026-09-01 23:21:13 | 64.01689 | -22.56339 | 30° | 47km/h | 6802m | 5.5m/s | -32.6°C | 69.3% | 0hPa | 0V | 00:00:00 | 00:00:00 | 00:00:00 | |
| DL9RDZ-1 | 2026-09-01 23:21:03 | 64.01601 | -22.56515 | 33° | 40km/h | 6735m | 8.2m/s | -32.1°C | 69.2% | 0hPa | 0V | 00:00:00 | 00:00:00 | 00:00:00 | |
| DL9RDZ-1 | 2026-09-01 23:20:52 | 64.01509 | -22.56669 | 38° | 44km/h | 6670m | 7.6m/s | -31.6°C | 70.8% | 0hPa | 0V | 00:00:00 | 00:00:00 | 00:00:00 | |
| DL9RDZ-1 | 2026-09-01 23:20:42 | 64.01433 | -22.56844 | 35° | 42km/h | 6610m | 5.9m/s | -31.1°C | 69.3% | 0hPa | 0V | 00:00:00 | 00:00:00 | 00:00:00 | |
| DL9RDZ-1 | 2026-09-01 23:20:32 | 64.01362 | -22.57002 | 49° | 46km/h | 6563m | 3.8m/s | -30.8°C | 72.2% | 0hPa | 0V | 00:00:00 | 00:00:00 | 00:00:00 | |
| DL9RDZ-1 | 2026-09-01 23:20:21 | 64.01277 | -22.57190 | 39° | 49km/h | 6494m | 5.9m/s | -30.2°C | 72.8% | 0hPa | 0V | 00:00:00 | 00:00:00 | 00:00:00 | |
| DL9RDZ-1 | 2026-09-01 23:20:11 | 64.01193 | -22.57349 | 49° | 37km/h | 6435m | 7.3m/s | -29.7°C | 72.7% | 0hPa | 0V | 00:00:00 | 00:00:00 | 00:00:00 | |
| DL9RDZ-1 | 2026-09-01 23:20:00 | 64.01117 | -22.57527 | 55° | 37km/h | 6371m | 6.0m/s | -29.2°C | 77.1% | 0hPa | 0V | 00:00:00 | 00:00:00 | 00:00:00 | |
| DL9RDZ-1 | 2026-09-01 23:19:50 | 64.01035 | -22.57648 | 47° | 33km/h | 6297m | 5.6m/s | -28.6°C | 78.3% | 0hPa | 0V | 00:00:00 | 00:00:00 | 00:00:00 | |
| DL9RDZ-1 | 2026-09-01 23:19:40 | 64.00959 | -22.57764 | 38° | 33km/h | 6240m | 7.0m/s | -28.2°C | 79.4% | 0hPa | 0V | 00:00:00 | 00:00:00 | 00:00:00 | |
| DL9RDZ-1 | 2026-09-01 23:19:29 | 64.00893 | -22.57887 | 55° | 27km/h | 6176m | 5.2m/s | -28.0°C | 68.6% | 0hPa | 0V | 00:00:00 | 00:00:00 | 00:00:00 | |
| DL9RDZ-1 | 2026-09-01 23:19:19 | 64.00830 | -22.58017 | 28° | 40km/h | 6120m | 5.6m/s | -27.6°C | 65.7% | 0hPa | 0V | 00:00:00 | 00:00:00 | 00:00:00 | |
| DL9RDZ-1 | 2026-09-01 23:19:09 | 64.00756 | -22.58136 | 29° | 33km/h | 6049m | 8.6m/s | -27.1°C | 62.9% | 0hPa | 0V | 00:00:00 | 00:00:00 | 00:00:00 | |
| DL9RDZ-1 | 2026-09-01 23:18:55 | 64.00661 | -22.58312 | 44° | 33km/h | 5962m | 5.6m/s | -26.5°C | 85.3% | 0hPa | 0V | 00:00:00 | 00:00:00 | 00:00:00 | |
| DL9RDZ-1 | 2026-09-01 23:18:44 | 64.00579 | -22.58453 | 36° | 38km/h | 5917m | 3.9m/s | -26.1°C | 83.9% | 0hPa | 0V | 00:00:00 | 00:00:00 | 00:00:00 | |
| DL9RDZ-1 | 2026-09-01 23:18:34 | 64.00516 | -22.58571 | 45° | 37km/h | 5850m | 5.3m/s | -25.6°C | 88.1% | 0hPa | 0V | 00:00:00 | 00:00:00 | 00:00:00 | |
| DL9RDZ-1 | 2026-09-01 23:18:23 | 64.00429 | -22.58716 | 44° | 31km/h | 5796m | 6.8m/s | -25.2°C | 86.1% | 0hPa | 0V | 00:00:00 | 00:00:00 | 00:00:00 | |
| DL9RDZ-1 | 2026-09-01 23:18:13 | 64.00380 | -22.58854 | 40° | 29km/h | 5742m | 5.8m/s | -24.7°C | 83.0% | 0hPa | 0V | 00:00:00 | 00:00:00 | 00:00:00 | |
| DL9RDZ-1 | 2026-09-01 23:18:03 | 64.00314 | -22.58951 | 49° | 29km/h | 5673m | 6.4m/s | -24.0°C | 80.8% | 0hPa | 0V | 00:00:00 | 00:00:00 | 00:00:00 | |
| DL9RDZ-1 | 2026-09-01 23:17:52 | 64.00248 | -22.59069 | 38° | 27km/h | 5616m | 9.4m/s | -23.6°C | 82.5% | 0hPa | 0V | 00:00:00 | 00:00:00 | 00:00:00 | |
| DL9RDZ-1 | 2026-09-01 23:17:41 | 64.00188 | -22.59193 | 50° | 27km/h | 5556m | 6.0m/s | -23.2°C | 83.2% | 0hPa | 0V | 00:00:00 | 00:00:00 | 00:00:00 | |
| DL9RDZ-1 | 2026-09-01 23:17:30 | 64.00114 | -22.59317 | 29° | 26km/h | 5498m | 6.1m/s | -22.8°C | 80.1% | 0hPa | 0V | 00:00:00 | 00:00:00 | 00:00:00 | |
| DL9RDZ-1 | 2026-09-01 23:17:20 | 64.00062 | -22.59410 | 38° | 33km/h | 5435m | 6.2m/s | -22.2°C | 74.0% | 0hPa | 0V | 00:00:00 | 00:00:00 | 00:00:00 | |
| DL9RDZ-1 | 2026-09-01 23:17:10 | 64.00008 | -22.59508 | 46° | 26km/h | 5373m | 3.1m/s | -21.7°C | 64.7% | 0hPa | 0V | 00:00:00 | 00:00:00 | 00:00:00 | |
| DL9RDZ-1 | 2026-09-01 23:17:00 | 63.99962 | -22.59642 | 31° | 31km/h | 5325m | 5.8m/s | -21.5°C | 70.9% | 0hPa | 0V | 00:00:00 | 00:00:00 | 00:00:00 | |
| DL9RDZ-1 | 2026-09-01 23:16:49 | 63.99893 | -22.59749 | 26° | 31km/h | 5271m | 4.1m/s | -21.2°C | 75.0% | 0hPa | 0V | 00:00:00 | 00:00:00 | 00:00:00 | |
| DL9RDZ-1 | 2026-09-01 23:16:38 | 63.99842 | -22.59874 | 46° | 31km/h | 5221m | 6.4m/s | -21.0°C | 51.4% | 0hPa | 0V | 00:00:00 | 00:00:00 | 00:00:00 | |
| DL9RDZ-1 | 2026-09-01 23:16:28 | 63.99779 | -22.59940 | 34° | 20km/h | 5156m | 7.0m/s | -20.5°C | 50.3% | 0hPa | 0V | 00:00:00 | 00:00:00 | 00:00:00 | |
| DL9RDZ-1 | 2026-09-01 23:16:18 | 63.99729 | -22.60024 | 41° | 18km/h | 5108m | 4.6m/s | -20.2°C | 49.0% | 0hPa | 0V | 00:00:00 | 00:00:00 | 00:00:00 | |
| DL9RDZ-1 | 2026-09-01 23:16:07 | 63.99658 | -22.60077 | 17° | 29km/h | 5044m | 3.5m/s | -19.7°C | 45.5% | 0hPa | 0V | 00:00:00 | 00:00:00 | 00:00:00 | |
| DL9RDZ-1 | 2026-09-01 23:15:57 | 63.99595 | -22.60127 | 22° | 42km/h | 4996m | 5.3m/s | -19.4°C | 48.1% | 0hPa | 0V | 00:00:00 | 00:00:00 | 00:00:00 | |
| DL9RDZ-1 | 2026-09-01 23:15:46 | 63.99521 | -22.60208 | 36° | 26km/h | 4923m | 4.2m/s | -18.9°C | 49.7% | 0hPa | 0V | 00:00:00 | 00:00:00 | 00:00:00 | |
| DL9RDZ-1 | 2026-09-01 23:15:36 | 63.99434 | -22.60284 | 22° | 33km/h | 4868m | 7.2m/s | -18.5°C | 31.0% | 0hPa | 0V | 00:00:00 | 00:00:00 | 00:00:00 | |
| DL9RDZ-1 | 2026-09-01 23:15:15 | 63.99280 | -22.60412 | 15° | 31km/h | 4745m | 4.9m/s | -17.5°C | 43.5% | 0hPa | 0V | 00:00:00 | 00:00:00 | 00:00:00 | |
| DL9RDZ-1 | 2026-09-01 23:15:04 | 63.99204 | -22.60452 | 21° | 40km/h | 4692m | 5.2m/s | -17.2°C | 39.5% | 0hPa | 0V | 00:00:00 | 00:00:00 | 00:00:00 | |
| DL9RDZ-1 | 2026-09-01 23:14:53 | 63.99130 | -22.60532 | 30° | 27km/h | 4623m | 5.6m/s | -16.9°C | 21.2% | 0hPa | 0V | 00:00:00 | 00:00:00 | 00:00:00 | |
| DL9RDZ-1 | 2026-09-01 23:14:42 | 63.99067 | -22.60566 | 7° | 35km/h | 4560m | 5.2m/s | -16.7°C | 36.4% | 0hPa | 0V | 00:00:00 | 00:00:00 | 00:00:00 | |
| DL9RDZ-1 | 2026-09-01 23:14:31 | 63.98987 | -22.60557 | 355° | 29km/h | 4503m | 4.2m/s | -16.4°C | 37.4% | 0hPa | 0V | 00:00:00 | 00:00:00 | 00:00:00 | |
| DL9RDZ-1 | 2026-09-01 23:14:21 | 63.98901 | -22.60543 | 18° | 26km/h | 4455m | 5.8m/s | -16.1°C | 26.0% | 0hPa | 0V | 00:00:00 | 00:00:00 | 00:00:00 | |
| DL9RDZ-1 | 2026-09-01 23:14:11 | 63.98848 | -22.60535 | 12° | 24km/h | 4387m | 4.6m/s | -15.7°C | 43.1% | 0hPa | 0V | 00:00:00 | 00:00:00 | 00:00:00 | |
| DL9RDZ-1 | 2026-09-01 23:14:01 | 63.98769 | -22.60536 | 344° | 31km/h | 4330m | 4.3m/s | -15.4°C | 41.8% | 0hPa | 0V | 00:00:00 | 00:00:00 | 00:00:00 | |
| DL9RDZ-1 | 2026-09-01 23:13:50 | 63.98698 | -22.60468 | 344° | 37km/h | 4273m | 6.9m/s | -15.0°C | 45.9% | 0hPa | 0V | 00:00:00 | 00:00:00 | 00:00:00 | |
| DL9RDZ-1 | 2026-09-01 23:13:40 | 63.98625 | -22.60437 | 3° | 22km/h | 4212m | 3.2m/s | -14.6°C | 40.7% | 0hPa | 0V | 00:00:00 | 00:00:00 | 00:00:00 | |
| DL9RDZ-1 | 2026-09-01 23:13:29 | 63.98554 | -22.60409 | 352° | 38km/h | 4155m | 5.8m/s | -14.4°C | 43.7% | 0hPa | 0V | 00:00:00 | 00:00:00 | 00:00:00 | |
| DL9RDZ-1 | 2026-09-01 23:13:18 | 63.98476 | -22.60361 | 341° | 31km/h | 4095m | 3.9m/s | -14.0°C | 37.5% | 0hPa | 0V | 00:00:00 | 00:00:00 | 00:00:00 | |
| DL9RDZ-1 | 2026-09-01 23:13:08 | 63.98406 | -22.60310 | 4° | 35km/h | 4035m | 9.2m/s | -13.7°C | 45.8% | 0hPa | 0V | 00:00:00 | 00:00:00 | 00:00:00 | |
| DL9RDZ-1 | 2026-09-01 23:12:58 | 63.98357 | -22.60327 | 332° | 22km/h | 3972m | 7.6m/s | -13.7°C | 49.5% | 0hPa | 0V | 00:00:00 | 00:00:00 | 00:00:00 | |
| DL9RDZ-1 | 2026-09-01 23:12:48 | 63.98305 | -22.60291 | 334° | 26km/h | 3914m | 7.6m/s | -13.3°C | 46.9% | 0hPa | 0V | 00:00:00 | 00:00:00 | 00:00:00 | |
| DL9RDZ-1 | 2026-09-01 23:12:37 | 63.98253 | -22.60256 | 325° | 27km/h | 3845m | 3.5m/s | -13.1°C | 51.2% | 0hPa | 0V | 00:00:00 | 00:00:00 | 00:00:00 | |
| DL9RDZ-1 | 2026-09-01 23:12:26 | 63.98212 | -22.60215 | 20° | 9km/h | 3790m | 8.1m/s | -13.1°C | 56.0% | 0hPa | 0V | 00:00:00 | 00:00:00 | 00:00:00 | |
| DL9RDZ-1 | 2026-09-01 23:12:16 | 63.98177 | -22.60150 | 322° | 26km/h | 3727m | 6.0m/s | -12.8°C | 60.2% | 0hPa | 0V | 00:00:00 | 00:00:00 | 00:00:00 | |
| DL9RDZ-1 | 2026-09-01 23:12:05 | 63.98132 | -22.60136 | 309° | 9km/h | 3661m | 6.9m/s | -12.5°C | 59.6% | 0hPa | 0V | 00:00:00 | 00:00:00 | 00:00:00 | |
| DL9RDZ-1 | 2026-09-01 23:11:54 | 63.98081 | -22.60148 | 4° | 18km/h | 3598m | 5.0m/s | -11.9°C | 57.8% | 0hPa | 0V | 00:00:00 | 00:00:00 | 00:00:00 | |
| DL9RDZ-1 | 2026-09-01 23:11:44 | 63.98036 | -22.60104 | 333° | 15km/h | 3550m | 6.9m/s | -11.7°C | 56.3% | 0hPa | 0V | 00:00:00 | 00:00:00 | 00:00:00 | |
| DL9RDZ-1 | 2026-09-01 23:11:33 | 63.98002 | -22.60101 | 26° | 20km/h | 3486m | 5.7m/s | -11.3°C | 49.5% | 0hPa | 0V | 00:00:00 | 00:00:00 | 00:00:00 | |
| DL9RDZ-1 | 2026-09-01 23:11:23 | 63.97974 | -22.60148 | 61° | 11km/h | 3432m | 2.5m/s | -10.8°C | 51.2% | 0hPa | 0V | 00:00:00 | 00:00:00 | 00:00:00 | |
| DL9RDZ-1 | 2026-09-01 23:11:12 | 63.97948 | -22.60184 | 48° | 20km/h | 3363m | 4.7m/s | -10.3°C | 48.2% | 0hPa | 0V | 00:00:00 | 00:00:00 | 00:00:00 | |
| DL9RDZ-1 | 2026-09-01 23:11:02 | 63.97915 | -22.60202 | 16° | 16km/h | 3317m | 5.5m/s | -10.1°C | 45.8% | 0hPa | 0V | 00:00:00 | 00:00:00 | 00:00:00 | |
| DL9RDZ-1 | 2026-09-01 23:10:51 | 63.97888 | -22.60277 | 23° | 13km/h | 3254m | 8.9m/s | -9.9°C | 53.7% | 0hPa | 0V | 00:00:00 | 00:00:00 | 00:00:00 | |
| DL9RDZ-1 | 2026-09-01 23:10:40 | 63.97864 | -22.60326 | 30° | 20km/h | 3195m | 6.4m/s | -9.9°C | 63.1% | 0hPa | 0V | 00:00:00 | 00:00:00 | 00:00:00 | |
| DL9RDZ-1 | 2026-09-01 23:10:30 | 63.97837 | -22.60362 | 32° | 18km/h | 3136m | 7.9m/s | -9.7°C | 63.4% | 0hPa | 0V | 00:00:00 | 00:00:00 | 00:00:00 | |
| DL9RDZ-1 | 2026-09-01 23:10:19 | 63.97811 | -22.60414 | 336° | 11km/h | 3082m | 5.8m/s | -9.3°C | 62.6% | 0hPa | 0V | 00:00:00 | 00:00:00 | 00:00:00 | |
| DL9RDZ-1 | 2026-09-01 23:10:09 | 63.97796 | -22.60383 | 318° | 9km/h | 3026m | 3.7m/s | -8.9°C | 64.1% | 0hPa | 0V | 00:00:00 | 00:00:00 | 00:00:00 | |
| DL9RDZ-1 | 2026-09-01 23:09:58 | 63.97775 | -22.60391 | 34° | 11km/h | 2976m | 4.5m/s | -8.5°C | 59.4% | 0hPa | 0V | 00:00:00 | 00:00:00 | 00:00:00 | |
| DL9RDZ-1 | 2026-09-01 23:09:48 | 63.97752 | -22.60395 | 359° | 18km/h | 2922m | 7.2m/s | -8.2°C | 52.0% | 0hPa | 0V | 00:00:00 | 00:00:00 | 00:00:00 | |
| DL9RDZ-1 | 2026-09-01 23:09:37 | 63.97742 | -22.60434 | 40° | 11km/h | 2866m | 5.8m/s | -8.0°C | 55.6% | 0hPa | 0V | 00:00:00 | 00:00:00 | 00:00:00 | |
| DL9RDZ-1 | 2026-09-01 23:09:27 | 63.97698 | -22.60442 | 337° | 13km/h | 2812m | 4.9m/s | -7.9°C | 56.8% | 0hPa | 0V | 00:00:00 | 00:00:00 | 00:00:00 | |
| DL9RDZ-1 | 2026-09-01 23:09:16 | 63.97658 | -22.60463 | 58° | 11km/h | 2756m | 6.3m/s | -7.8°C | 64.1% | 0hPa | 0V | 00:00:00 | 00:00:00 | 00:00:00 | |
| DL9RDZ-1 | 2026-09-01 23:09:06 | 63.97655 | -22.60486 | 339° | 11km/h | 2698m | 5.7m/s | -7.5°C | 63.9% | 0hPa | 0V | 00:00:00 | 00:00:00 | 00:00:00 | |
| DL9RDZ-1 | 2026-09-01 23:08:55 | 63.97629 | -22.60512 | 187° | 4km/h | 2638m | 6.1m/s | -7.1°C | 63.4% | 0hPa | 0V | 00:00:00 | 00:00:00 | 00:00:00 | |
| DL9RDZ-1 | 2026-09-01 23:08:44 | 63.97612 | -22.60553 | 357° | 7km/h | 2586m | 7.2m/s | -6.7°C | 64.8% | 0hPa | 0V | 00:00:00 | 00:00:00 | 00:00:00 | |
| DL9RDZ-1 | 2026-09-01 23:08:33 | 63.97586 | -22.60570 | 7° | 20km/h | 2523m | 4.8m/s | -6.2°C | 63.1% | 0hPa | 0V | 00:00:00 | 00:00:00 | 00:00:00 | |
| DL9RDZ-1 | 2026-09-01 23:08:22 | 63.97574 | -22.60620 | 106° | 13km/h | 2459m | 7.8m/s | -5.7°C | 63.8% | 0hPa | 0V | 00:00:00 | 00:00:00 | 00:00:00 | |
| DL9RDZ-1 | 2026-09-01 23:08:12 | 63.97565 | -22.60693 | 88° | 9km/h | 2396m | 5.0m/s | -5.4°C | 59.1% | 0hPa | 0V | 00:00:00 | 00:00:00 | 00:00:00 | |
| DL9RDZ-1 | 2026-09-01 23:08:01 | 63.97542 | -22.60713 | 13° | 9km/h | 2340m | 4.4m/s | -4.9°C | 56.4% | 0hPa | 0V | 00:00:00 | 00:00:00 | 00:00:00 | |
| DL9RDZ-1 | 2026-09-01 23:07:50 | 63.97520 | -22.60767 | 60° | 9km/h | 2282m | 4.2m/s | -4.4°C | 58.4% | 0hPa | 0V | 00:00:00 | 00:00:00 | 00:00:00 | |
| DL9RDZ-1 | 2026-09-01 23:07:39 | 63.97503 | -22.60836 | 29° | 11km/h | 2219m | 5.5m/s | -3.9°C | 57.2% | 0hPa | 0V | 00:00:00 | 00:00:00 | 00:00:00 | |
| DL9RDZ-1 | 2026-09-01 23:07:28 | 63.97497 | -22.60886 | 55° | 20km/h | 2153m | 5.5m/s | -3.5°C | 59.7% | 0hPa | 0V | 00:00:00 | 00:00:00 | 00:00:00 | |
| DL9RDZ-1 | 2026-09-01 23:07:19 | 63.97473 | -22.60983 | 75° | 18km/h | 2095m | 3.3m/s | -3.1°C | 62.5% | 0hPa | 0V | 00:00:00 | 00:00:00 | 00:00:00 | |
| DL9RDZ-1 | 2026-09-01 23:07:07 | 63.97446 | -22.61040 | 56° | 13km/h | 2030m | 6.0m/s | -2.6°C | 53.3% | 0hPa | 0V | 00:00:00 | 00:00:00 | 00:00:00 | |
| DL9RDZ-1 | 2026-09-01 23:06:56 | 63.97427 | -22.61115 | 45° | 16km/h | 1974m | 5.2m/s | -2.5°C | 63.3% | 0hPa | 0V | 00:00:00 | 00:00:00 | 00:00:00 | |
| DL9RDZ-1 | 2026-09-01 23:06:34 | 63.97404 | -22.61249 | 82° | 18km/h | 1847m | 6.8m/s | -1.8°C | 0% | 0hPa | 0V | 00:00:00 | 00:00:00 | 00:00:00 | |
| DL9RDZ-1 | 2026-09-01 23:06:24 | 63.97391 | -22.61272 | 141° | 9km/h | 1802m | 5.8m/s | -1.4°C | 0% | 0hPa | 0V | 00:00:00 | 00:00:00 | 00:00:00 | |
| DL9RDZ-1 | 2026-09-01 23:06:13 | 63.97393 | -22.61345 | 154° | 7km/h | 1744m | 4.7m/s | -1.0°C | 0% | 0hPa | 0V | 00:00:00 | 00:00:00 | 00:00:00 | |
| DL9RDZ-1 | 2026-09-01 23:06:03 | 63.97377 | -22.61374 | 84° | 20km/h | 1696m | 6.0m/s | 0°C | 0% | 0hPa | 0V | 00:00:00 | 00:00:00 | 00:00:00 | |
| DL9RDZ-1 | 2026-09-01 23:05:52 | 63.97367 | -22.61426 | 199° | 5km/h | 1644m | 4.5m/s | 0°C | 0% | 0hPa | 0V | 00:00:00 | 00:00:00 | 00:00:00 | |
| DL9RDZ-1 | 2026-09-01 23:04:54 | 63.97357 | -22.61509 | 96° | 11km/h | 1329m | 4.6m/s | 0°C | 0% | 0hPa | 0V | 00:00:00 | 00:00:00 | 00:00:00 | |
| DL9RDZ-1 | 2026-09-01 23:04:44 | 63.97347 | -22.61521 | 6° | 9km/h | 1283m | 5.4m/s | 0°C | 0% | 0hPa | 0V | 00:00:00 | 00:00:00 | 00:00:00 | |
| DL9RDZ-1 | 2026-09-01 23:04:31 | 63.97343 | -22.61537 | 116° | 7km/h | 1214m | 7.2m/s | 0°C | 0% | 0hPa | 0V | 00:00:00 | 00:00:00 | 00:00:00 | |
| DL9RDZ-1 | 2026-09-01 23:04:21 | 63.97345 | -22.61537 | 357° | 7km/h | 1154m | 7.3m/s | 0°C | 0% | 0hPa | 0V | 00:00:00 | 00:00:00 | 00:00:00 | |
| DL9RDZ-1 | 2026-09-01 23:04:10 | 63.97315 | -22.61547 | 0° | 0km/h | 1092m | 4.0m/s | 0°C | 0% | 0hPa | 0V | 00:00:00 | 00:00:00 | 00:00:00 |